<?xml version="1.0" encoding="UTF-8" standalone="no" ?>
<gpx xmlns="http://www.topografix.com/GPX/1/1" xmlns:xsi="http://www.w3.org/2001/XMLSchema-instance" xsi:schemaLocation="http://www.topografix.com/GPX/1/1 http://www.topografix.com/GPX/1/1/gpx.xsd" version="1.1" creator="VisuGPX - https://www.visugpx.com">
  <metadata>
    <name>Randonnée tour de jouhe</name>
  </metadata>
  <trk>
    <name><![CDATA[Randonnée du 01/05/2023 à 10:55]]></name>
    <trkseg>
      <trkpt lat="47.14104" lon="5.49532">
        <ele>283</ele>
        <time>2023-05-01T10:55:42+02:00</time>
      </trkpt>
      <trkpt lat="47.14104" lon="5.49552">
        <ele>283</ele>
        <time>2023-05-01T10:56:18+02:00</time>
      </trkpt>
      <trkpt lat="47.1411" lon="5.49574">
        <ele>282</ele>
        <time>2023-05-01T10:56:32+02:00</time>
      </trkpt>
      <trkpt lat="47.14108" lon="5.49597">
        <ele>283</ele>
        <time>2023-05-01T10:56:48+02:00</time>
      </trkpt>
      <trkpt lat="47.14103" lon="5.4962">
        <ele>282</ele>
        <time>2023-05-01T10:57:04+02:00</time>
      </trkpt>
      <trkpt lat="47.141" lon="5.49641">
        <ele>284</ele>
        <time>2023-05-01T10:57:15+02:00</time>
      </trkpt>
      <trkpt lat="47.14096" lon="5.49663">
        <ele>283</ele>
        <time>2023-05-01T10:57:29+02:00</time>
      </trkpt>
      <trkpt lat="47.14094" lon="5.49685">
        <ele>283</ele>
        <time>2023-05-01T10:57:41+02:00</time>
      </trkpt>
      <trkpt lat="47.14095" lon="5.49707">
        <ele>283</ele>
        <time>2023-05-01T10:57:53+02:00</time>
      </trkpt>
      <trkpt lat="47.14096" lon="5.49728">
        <ele>283</ele>
        <time>2023-05-01T10:58:04+02:00</time>
      </trkpt>
      <trkpt lat="47.14098" lon="5.49748">
        <ele>283</ele>
        <time>2023-05-01T10:58:14+02:00</time>
      </trkpt>
      <trkpt lat="47.14101" lon="5.49768">
        <ele>283</ele>
        <time>2023-05-01T10:58:25+02:00</time>
      </trkpt>
      <trkpt lat="47.14105" lon="5.49791">
        <ele>283</ele>
        <time>2023-05-01T10:58:39+02:00</time>
      </trkpt>
      <trkpt lat="47.14108" lon="5.49814">
        <ele>283</ele>
        <time>2023-05-01T10:58:50+02:00</time>
      </trkpt>
      <trkpt lat="47.14113" lon="5.49837">
        <ele>283</ele>
        <time>2023-05-01T10:59:03+02:00</time>
      </trkpt>
      <trkpt lat="47.14129" lon="5.49833">
        <ele>283</ele>
        <time>2023-05-01T10:59:14+02:00</time>
      </trkpt>
      <trkpt lat="47.14137" lon="5.4981">
        <ele>283</ele>
        <time>2023-05-01T10:59:25+02:00</time>
      </trkpt>
      <trkpt lat="47.14143" lon="5.4979">
        <ele>282</ele>
        <time>2023-05-01T10:59:36+02:00</time>
      </trkpt>
      <trkpt lat="47.1415" lon="5.49768">
        <ele>282</ele>
        <time>2023-05-01T10:59:49+02:00</time>
      </trkpt>
      <trkpt lat="47.14154" lon="5.4975">
        <ele>282</ele>
        <time>2023-05-01T11:00:00+02:00</time>
      </trkpt>
      <trkpt lat="47.14162" lon="5.49728">
        <ele>281</ele>
        <time>2023-05-01T11:00:14+02:00</time>
      </trkpt>
      <trkpt lat="47.14168" lon="5.49705">
        <ele>282</ele>
        <time>2023-05-01T11:00:26+02:00</time>
      </trkpt>
      <trkpt lat="47.14171" lon="5.49686">
        <ele>282</ele>
        <time>2023-05-01T11:00:38+02:00</time>
      </trkpt>
      <trkpt lat="47.14177" lon="5.49664">
        <ele>281</ele>
        <time>2023-05-01T11:00:51+02:00</time>
      </trkpt>
      <trkpt lat="47.14186" lon="5.49647">
        <ele>282</ele>
        <time>2023-05-01T11:01:02+02:00</time>
      </trkpt>
      <trkpt lat="47.14197" lon="5.49634">
        <ele>281</ele>
        <time>2023-05-01T11:01:13+02:00</time>
      </trkpt>
      <trkpt lat="47.1421" lon="5.4962">
        <ele>282</ele>
        <time>2023-05-01T11:01:26+02:00</time>
      </trkpt>
      <trkpt lat="47.14224" lon="5.49613">
        <ele>281</ele>
        <time>2023-05-01T11:01:38+02:00</time>
      </trkpt>
      <trkpt lat="47.14238" lon="5.49606">
        <ele>282</ele>
        <time>2023-05-01T11:01:49+02:00</time>
      </trkpt>
      <trkpt lat="47.14251" lon="5.49597">
        <ele>282</ele>
        <time>2023-05-01T11:02:00+02:00</time>
      </trkpt>
      <trkpt lat="47.14264" lon="5.49605">
        <ele>282</ele>
        <time>2023-05-01T11:02:14+02:00</time>
      </trkpt>
      <trkpt lat="47.14267" lon="5.49627">
        <ele>282</ele>
        <time>2023-05-01T11:02:25+02:00</time>
      </trkpt>
      <trkpt lat="47.14272" lon="5.49648">
        <ele>282</ele>
        <time>2023-05-01T11:02:36+02:00</time>
      </trkpt>
      <trkpt lat="47.14282" lon="5.49663">
        <ele>282</ele>
        <time>2023-05-01T11:04:07+02:00</time>
      </trkpt>
      <trkpt lat="47.14294" lon="5.49674">
        <ele>283</ele>
        <time>2023-05-01T11:04:16+02:00</time>
      </trkpt>
      <trkpt lat="47.14309" lon="5.49683">
        <ele>283</ele>
        <time>2023-05-01T11:04:27+02:00</time>
      </trkpt>
      <trkpt lat="47.14322" lon="5.49698">
        <ele>283</ele>
        <time>2023-05-01T11:04:40+02:00</time>
      </trkpt>
      <trkpt lat="47.14336" lon="5.49709">
        <ele>283</ele>
        <time>2023-05-01T11:04:52+02:00</time>
      </trkpt>
      <trkpt lat="47.14348" lon="5.4972">
        <ele>284</ele>
        <time>2023-05-01T11:05:03+02:00</time>
      </trkpt>
      <trkpt lat="47.1436" lon="5.4973">
        <ele>284</ele>
        <time>2023-05-01T11:05:14+02:00</time>
      </trkpt>
      <trkpt lat="47.14374" lon="5.49742">
        <ele>284</ele>
        <time>2023-05-01T11:05:29+02:00</time>
      </trkpt>
      <trkpt lat="47.14386" lon="5.49751">
        <ele>283</ele>
        <time>2023-05-01T11:05:37+02:00</time>
      </trkpt>
      <trkpt lat="47.14402" lon="5.49762">
        <ele>284</ele>
        <time>2023-05-01T11:05:49+02:00</time>
      </trkpt>
      <trkpt lat="47.14415" lon="5.49773">
        <ele>284</ele>
        <time>2023-05-01T11:06:00+02:00</time>
      </trkpt>
      <trkpt lat="47.14427" lon="5.49783">
        <ele>284</ele>
        <time>2023-05-01T11:06:11+02:00</time>
      </trkpt>
      <trkpt lat="47.14439" lon="5.49794">
        <ele>284</ele>
        <time>2023-05-01T11:06:22+02:00</time>
      </trkpt>
      <trkpt lat="47.14451" lon="5.4981">
        <ele>285</ele>
        <time>2023-05-01T11:06:35+02:00</time>
      </trkpt>
      <trkpt lat="47.14463" lon="5.49826">
        <ele>285</ele>
        <time>2023-05-01T11:06:48+02:00</time>
      </trkpt>
      <trkpt lat="47.14474" lon="5.49843">
        <ele>286</ele>
        <time>2023-05-01T11:07:01+02:00</time>
      </trkpt>
      <trkpt lat="47.14487" lon="5.49854">
        <ele>286</ele>
        <time>2023-05-01T11:07:14+02:00</time>
      </trkpt>
      <trkpt lat="47.14501" lon="5.49862">
        <ele>286</ele>
        <time>2023-05-01T11:07:25+02:00</time>
      </trkpt>
      <trkpt lat="47.14515" lon="5.49871">
        <ele>287</ele>
        <time>2023-05-01T11:07:39+02:00</time>
      </trkpt>
      <trkpt lat="47.1453" lon="5.49881">
        <ele>287</ele>
        <time>2023-05-01T11:07:50+02:00</time>
      </trkpt>
      <trkpt lat="47.14544" lon="5.49889">
        <ele>287</ele>
        <time>2023-05-01T11:08:02+02:00</time>
      </trkpt>
      <trkpt lat="47.14559" lon="5.49902">
        <ele>288</ele>
        <time>2023-05-01T11:08:15+02:00</time>
      </trkpt>
      <trkpt lat="47.14574" lon="5.49914">
        <ele>287</ele>
        <time>2023-05-01T11:08:27+02:00</time>
      </trkpt>
      <trkpt lat="47.14588" lon="5.49921">
        <ele>288</ele>
        <time>2023-05-01T11:08:38+02:00</time>
      </trkpt>
      <trkpt lat="47.14603" lon="5.4993">
        <ele>288</ele>
        <time>2023-05-01T11:08:49+02:00</time>
      </trkpt>
      <trkpt lat="47.14615" lon="5.49941">
        <ele>288</ele>
        <time>2023-05-01T11:09:00+02:00</time>
      </trkpt>
      <trkpt lat="47.14627" lon="5.4995">
        <ele>288</ele>
        <time>2023-05-01T11:09:11+02:00</time>
      </trkpt>
      <trkpt lat="47.1464" lon="5.4996">
        <ele>287</ele>
        <time>2023-05-01T11:09:22+02:00</time>
      </trkpt>
      <trkpt lat="47.14653" lon="5.49969">
        <ele>288</ele>
        <time>2023-05-01T11:09:33+02:00</time>
      </trkpt>
      <trkpt lat="47.14665" lon="5.49979">
        <ele>287</ele>
        <time>2023-05-01T11:09:43+02:00</time>
      </trkpt>
      <trkpt lat="47.14678" lon="5.49989">
        <ele>287</ele>
        <time>2023-05-01T11:09:54+02:00</time>
      </trkpt>
      <trkpt lat="47.14691" lon="5.5">
        <ele>287</ele>
        <time>2023-05-01T11:10:05+02:00</time>
      </trkpt>
      <trkpt lat="47.14703" lon="5.50011">
        <ele>287</ele>
        <time>2023-05-01T11:10:16+02:00</time>
      </trkpt>
      <trkpt lat="47.14716" lon="5.50021">
        <ele>287</ele>
        <time>2023-05-01T11:10:27+02:00</time>
      </trkpt>
      <trkpt lat="47.14728" lon="5.50034">
        <ele>288</ele>
        <time>2023-05-01T11:10:38+02:00</time>
      </trkpt>
      <trkpt lat="47.1474" lon="5.50047">
        <ele>288</ele>
        <time>2023-05-01T11:10:49+02:00</time>
      </trkpt>
      <trkpt lat="47.14751" lon="5.50058">
        <ele>287</ele>
        <time>2023-05-01T11:10:59+02:00</time>
      </trkpt>
      <trkpt lat="47.14763" lon="5.50071">
        <ele>288</ele>
        <time>2023-05-01T11:11:10+02:00</time>
      </trkpt>
      <trkpt lat="47.14775" lon="5.50083">
        <ele>288</ele>
        <time>2023-05-01T11:11:21+02:00</time>
      </trkpt>
      <trkpt lat="47.14786" lon="5.50095">
        <ele>288</ele>
        <time>2023-05-01T11:11:31+02:00</time>
      </trkpt>
      <trkpt lat="47.14797" lon="5.50109">
        <ele>288</ele>
        <time>2023-05-01T11:11:42+02:00</time>
      </trkpt>
      <trkpt lat="47.14808" lon="5.50122">
        <ele>288</ele>
        <time>2023-05-01T11:11:53+02:00</time>
      </trkpt>
      <trkpt lat="47.14818" lon="5.50137">
        <ele>288</ele>
        <time>2023-05-01T11:12:03+02:00</time>
      </trkpt>
      <trkpt lat="47.1483" lon="5.50152">
        <ele>288</ele>
        <time>2023-05-01T11:12:14+02:00</time>
      </trkpt>
      <trkpt lat="47.14843" lon="5.50164">
        <ele>289</ele>
        <time>2023-05-01T11:12:26+02:00</time>
      </trkpt>
      <trkpt lat="47.14854" lon="5.50177">
        <ele>289</ele>
        <time>2023-05-01T11:12:37+02:00</time>
      </trkpt>
      <trkpt lat="47.14867" lon="5.5019">
        <ele>289</ele>
        <time>2023-05-01T11:12:50+02:00</time>
      </trkpt>
      <trkpt lat="47.14878" lon="5.50203">
        <ele>290</ele>
        <time>2023-05-01T11:13:00+02:00</time>
      </trkpt>
      <trkpt lat="47.14891" lon="5.50215">
        <ele>290</ele>
        <time>2023-05-01T11:13:11+02:00</time>
      </trkpt>
      <trkpt lat="47.14904" lon="5.50224">
        <ele>290</ele>
        <time>2023-05-01T11:13:21+02:00</time>
      </trkpt>
      <trkpt lat="47.14917" lon="5.50239">
        <ele>290</ele>
        <time>2023-05-01T11:13:34+02:00</time>
      </trkpt>
      <trkpt lat="47.1493" lon="5.50249">
        <ele>291</ele>
        <time>2023-05-01T11:13:45+02:00</time>
      </trkpt>
      <trkpt lat="47.14939" lon="5.50263">
        <ele>292</ele>
        <time>2023-05-01T11:14:04+02:00</time>
      </trkpt>
      <trkpt lat="47.1493" lon="5.50243">
        <ele>291</ele>
        <time>2023-05-01T11:14:29+02:00</time>
      </trkpt>
      <trkpt lat="47.14941" lon="5.50258">
        <ele>291</ele>
        <time>2023-05-01T11:15:02+02:00</time>
      </trkpt>
      <trkpt lat="47.1495" lon="5.50277">
        <ele>292</ele>
        <time>2023-05-01T11:15:15+02:00</time>
      </trkpt>
      <trkpt lat="47.14948" lon="5.50297">
        <ele>293</ele>
        <time>2023-05-01T11:15:26+02:00</time>
      </trkpt>
      <trkpt lat="47.14957" lon="5.50316">
        <ele>293</ele>
        <time>2023-05-01T11:15:49+02:00</time>
      </trkpt>
      <trkpt lat="47.14967" lon="5.50331">
        <ele>294</ele>
        <time>2023-05-01T11:16:00+02:00</time>
      </trkpt>
      <trkpt lat="47.14982" lon="5.50348">
        <ele>294</ele>
        <time>2023-05-01T11:16:17+02:00</time>
      </trkpt>
      <trkpt lat="47.14996" lon="5.50361">
        <ele>294</ele>
        <time>2023-05-01T11:16:26+02:00</time>
      </trkpt>
      <trkpt lat="47.14995" lon="5.50385">
        <ele>295</ele>
        <time>2023-05-01T11:16:40+02:00</time>
      </trkpt>
      <trkpt lat="47.14986" lon="5.50402">
        <ele>296</ele>
        <time>2023-05-01T11:16:54+02:00</time>
      </trkpt>
      <trkpt lat="47.1498" lon="5.5042">
        <ele>297</ele>
        <time>2023-05-01T11:17:07+02:00</time>
      </trkpt>
      <trkpt lat="47.14975" lon="5.50443">
        <ele>298</ele>
        <time>2023-05-01T11:17:20+02:00</time>
      </trkpt>
      <trkpt lat="47.14968" lon="5.50463">
        <ele>299</ele>
        <time>2023-05-01T11:17:31+02:00</time>
      </trkpt>
      <trkpt lat="47.14964" lon="5.50483">
        <ele>298</ele>
        <time>2023-05-01T11:17:44+02:00</time>
      </trkpt>
      <trkpt lat="47.14958" lon="5.50502">
        <ele>298</ele>
        <time>2023-05-01T11:17:55+02:00</time>
      </trkpt>
      <trkpt lat="47.14951" lon="5.5052">
        <ele>299</ele>
        <time>2023-05-01T11:18:06+02:00</time>
      </trkpt>
      <trkpt lat="47.14945" lon="5.50541">
        <ele>299</ele>
        <time>2023-05-01T11:18:18+02:00</time>
      </trkpt>
      <trkpt lat="47.14937" lon="5.5056">
        <ele>301</ele>
        <time>2023-05-01T11:18:32+02:00</time>
      </trkpt>
      <trkpt lat="47.14935" lon="5.5058">
        <ele>302</ele>
        <time>2023-05-01T11:18:45+02:00</time>
      </trkpt>
      <trkpt lat="47.14928" lon="5.50602">
        <ele>303</ele>
        <time>2023-05-01T11:18:59+02:00</time>
      </trkpt>
      <trkpt lat="47.1492" lon="5.50619">
        <ele>304</ele>
        <time>2023-05-01T11:19:12+02:00</time>
      </trkpt>
      <trkpt lat="47.14916" lon="5.5064">
        <ele>306</ele>
        <time>2023-05-01T11:19:25+02:00</time>
      </trkpt>
      <trkpt lat="47.1491" lon="5.50657">
        <ele>307</ele>
        <time>2023-05-01T11:19:39+02:00</time>
      </trkpt>
      <trkpt lat="47.14904" lon="5.50678">
        <ele>309</ele>
        <time>2023-05-01T11:19:52+02:00</time>
      </trkpt>
      <trkpt lat="47.14896" lon="5.50698">
        <ele>310</ele>
        <time>2023-05-01T11:20:06+02:00</time>
      </trkpt>
      <trkpt lat="47.1489" lon="5.50718">
        <ele>312</ele>
        <time>2023-05-01T11:20:20+02:00</time>
      </trkpt>
      <trkpt lat="47.14886" lon="5.50738">
        <ele>314</ele>
        <time>2023-05-01T11:20:33+02:00</time>
      </trkpt>
      <trkpt lat="47.1488" lon="5.50758">
        <ele>317</ele>
        <time>2023-05-01T11:20:49+02:00</time>
      </trkpt>
      <trkpt lat="47.14873" lon="5.50779">
        <ele>320</ele>
        <time>2023-05-01T11:21:04+02:00</time>
      </trkpt>
      <trkpt lat="47.14871" lon="5.50799">
        <ele>322</ele>
        <time>2023-05-01T11:21:15+02:00</time>
      </trkpt>
      <trkpt lat="47.14865" lon="5.50818">
        <ele>323</ele>
        <time>2023-05-01T11:21:28+02:00</time>
      </trkpt>
      <trkpt lat="47.14865" lon="5.50841">
        <ele>324</ele>
        <time>2023-05-01T11:21:41+02:00</time>
      </trkpt>
      <trkpt lat="47.14866" lon="5.50864">
        <ele>326</ele>
        <time>2023-05-01T11:21:54+02:00</time>
      </trkpt>
      <trkpt lat="47.14867" lon="5.50886">
        <ele>327</ele>
        <time>2023-05-01T11:22:07+02:00</time>
      </trkpt>
      <trkpt lat="47.14865" lon="5.50907">
        <ele>328</ele>
        <time>2023-05-01T11:22:19+02:00</time>
      </trkpt>
      <trkpt lat="47.14859" lon="5.5093">
        <ele>329</ele>
        <time>2023-05-01T11:22:33+02:00</time>
      </trkpt>
      <trkpt lat="47.14856" lon="5.50953">
        <ele>329</ele>
        <time>2023-05-01T11:22:46+02:00</time>
      </trkpt>
      <trkpt lat="47.14852" lon="5.50972">
        <ele>328</ele>
        <time>2023-05-01T11:22:57+02:00</time>
      </trkpt>
      <trkpt lat="47.14848" lon="5.50995">
        <ele>326</ele>
        <time>2023-05-01T11:23:10+02:00</time>
      </trkpt>
      <trkpt lat="47.14843" lon="5.51014">
        <ele>325</ele>
        <time>2023-05-01T11:23:23+02:00</time>
      </trkpt>
      <trkpt lat="47.14837" lon="5.51036">
        <ele>324</ele>
        <time>2023-05-01T11:23:37+02:00</time>
      </trkpt>
      <trkpt lat="47.14829" lon="5.51054">
        <ele>322</ele>
        <time>2023-05-01T11:23:50+02:00</time>
      </trkpt>
      <trkpt lat="47.14818" lon="5.5107">
        <ele>320</ele>
        <time>2023-05-01T11:24:03+02:00</time>
      </trkpt>
      <trkpt lat="47.14807" lon="5.51091">
        <ele>319</ele>
        <time>2023-05-01T11:24:17+02:00</time>
      </trkpt>
      <trkpt lat="47.14799" lon="5.51113">
        <ele>317</ele>
        <time>2023-05-01T11:24:30+02:00</time>
      </trkpt>
      <trkpt lat="47.14798" lon="5.51136">
        <ele>317</ele>
        <time>2023-05-01T11:24:41+02:00</time>
      </trkpt>
      <trkpt lat="47.14795" lon="5.51159">
        <ele>316</ele>
        <time>2023-05-01T11:24:55+02:00</time>
      </trkpt>
      <trkpt lat="47.1479" lon="5.51183">
        <ele>315</ele>
        <time>2023-05-01T11:25:09+02:00</time>
      </trkpt>
      <trkpt lat="47.14791" lon="5.51203">
        <ele>315</ele>
        <time>2023-05-01T11:25:19+02:00</time>
      </trkpt>
      <trkpt lat="47.14795" lon="5.51223">
        <ele>313</ele>
        <time>2023-05-01T11:25:30+02:00</time>
      </trkpt>
      <trkpt lat="47.14798" lon="5.51243">
        <ele>313</ele>
        <time>2023-05-01T11:25:41+02:00</time>
      </trkpt>
      <trkpt lat="47.14795" lon="5.51265">
        <ele>313</ele>
        <time>2023-05-01T11:25:55+02:00</time>
      </trkpt>
      <trkpt lat="47.1478" lon="5.51275">
        <ele>313</ele>
        <time>2023-05-01T11:26:09+02:00</time>
      </trkpt>
      <trkpt lat="47.14768" lon="5.51286">
        <ele>313</ele>
        <time>2023-05-01T11:26:19+02:00</time>
      </trkpt>
      <trkpt lat="47.14755" lon="5.51295">
        <ele>313</ele>
        <time>2023-05-01T11:26:30+02:00</time>
      </trkpt>
      <trkpt lat="47.14743" lon="5.51303">
        <ele>313</ele>
        <time>2023-05-01T11:26:41+02:00</time>
      </trkpt>
      <trkpt lat="47.14729" lon="5.51311">
        <ele>314</ele>
        <time>2023-05-01T11:26:52+02:00</time>
      </trkpt>
      <trkpt lat="47.14715" lon="5.51318">
        <ele>312</ele>
        <time>2023-05-01T11:27:03+02:00</time>
      </trkpt>
      <trkpt lat="47.14702" lon="5.51329">
        <ele>313</ele>
        <time>2023-05-01T11:27:15+02:00</time>
      </trkpt>
      <trkpt lat="47.14693" lon="5.51345">
        <ele>313</ele>
        <time>2023-05-01T11:27:26+02:00</time>
      </trkpt>
      <trkpt lat="47.14683" lon="5.51364">
        <ele>312</ele>
        <time>2023-05-01T11:27:37+02:00</time>
      </trkpt>
      <trkpt lat="47.14679" lon="5.51383">
        <ele>312</ele>
        <time>2023-05-01T11:27:46+02:00</time>
      </trkpt>
      <trkpt lat="47.1467" lon="5.51402">
        <ele>312</ele>
        <time>2023-05-01T11:27:58+02:00</time>
      </trkpt>
      <trkpt lat="47.1466" lon="5.51417">
        <ele>313</ele>
        <time>2023-05-01T11:28:09+02:00</time>
      </trkpt>
      <trkpt lat="47.14668" lon="5.51435">
        <ele>313</ele>
        <time>2023-05-01T11:28:23+02:00</time>
      </trkpt>
      <trkpt lat="47.14683" lon="5.51446">
        <ele>313</ele>
        <time>2023-05-01T11:28:46+02:00</time>
      </trkpt>
      <trkpt lat="47.14696" lon="5.5146">
        <ele>315</ele>
        <time>2023-05-01T11:28:57+02:00</time>
      </trkpt>
      <trkpt lat="47.1471" lon="5.5146">
        <ele>315</ele>
        <time>2023-05-01T11:29:08+02:00</time>
      </trkpt>
      <trkpt lat="47.14725" lon="5.51462">
        <ele>316</ele>
        <time>2023-05-01T11:29:19+02:00</time>
      </trkpt>
      <trkpt lat="47.14732" lon="5.51482">
        <ele>317</ele>
        <time>2023-05-01T11:29:30+02:00</time>
      </trkpt>
      <trkpt lat="47.14736" lon="5.51503">
        <ele>318</ele>
        <time>2023-05-01T11:29:42+02:00</time>
      </trkpt>
      <trkpt lat="47.14732" lon="5.51525">
        <ele>319</ele>
        <time>2023-05-01T11:29:53+02:00</time>
      </trkpt>
      <trkpt lat="47.14727" lon="5.51547">
        <ele>319</ele>
        <time>2023-05-01T11:30:04+02:00</time>
      </trkpt>
      <trkpt lat="47.14719" lon="5.51567">
        <ele>320</ele>
        <time>2023-05-01T11:30:16+02:00</time>
      </trkpt>
      <trkpt lat="47.14716" lon="5.51586">
        <ele>320</ele>
        <time>2023-05-01T11:30:27+02:00</time>
      </trkpt>
      <trkpt lat="47.14722" lon="5.51607">
        <ele>321</ele>
        <time>2023-05-01T11:30:38+02:00</time>
      </trkpt>
      <trkpt lat="47.14727" lon="5.51629">
        <ele>321</ele>
        <time>2023-05-01T11:30:49+02:00</time>
      </trkpt>
      <trkpt lat="47.14732" lon="5.51648">
        <ele>323</ele>
        <time>2023-05-01T11:30:59+02:00</time>
      </trkpt>
      <trkpt lat="47.1474" lon="5.51668">
        <ele>323</ele>
        <time>2023-05-01T11:31:09+02:00</time>
      </trkpt>
      <trkpt lat="47.1475" lon="5.51687">
        <ele>323</ele>
        <time>2023-05-01T11:31:21+02:00</time>
      </trkpt>
      <trkpt lat="47.14762" lon="5.51701">
        <ele>323</ele>
        <time>2023-05-01T11:31:32+02:00</time>
      </trkpt>
      <trkpt lat="47.1477" lon="5.51717">
        <ele>323</ele>
        <time>2023-05-01T11:31:43+02:00</time>
      </trkpt>
      <trkpt lat="47.14781" lon="5.51735">
        <ele>324</ele>
        <time>2023-05-01T11:31:54+02:00</time>
      </trkpt>
      <trkpt lat="47.1479" lon="5.51754">
        <ele>323</ele>
        <time>2023-05-01T11:32:05+02:00</time>
      </trkpt>
      <trkpt lat="47.14801" lon="5.51768">
        <ele>325</ele>
        <time>2023-05-01T11:32:16+02:00</time>
      </trkpt>
      <trkpt lat="47.14812" lon="5.51781">
        <ele>326</ele>
        <time>2023-05-01T11:32:26+02:00</time>
      </trkpt>
      <trkpt lat="47.14824" lon="5.51795">
        <ele>326</ele>
        <time>2023-05-01T11:32:37+02:00</time>
      </trkpt>
      <trkpt lat="47.14837" lon="5.51804">
        <ele>328</ele>
        <time>2023-05-01T11:32:49+02:00</time>
      </trkpt>
      <trkpt lat="47.14849" lon="5.51822">
        <ele>326</ele>
        <time>2023-05-01T11:33:03+02:00</time>
      </trkpt>
      <trkpt lat="47.1486" lon="5.51837">
        <ele>326</ele>
        <time>2023-05-01T11:33:14+02:00</time>
      </trkpt>
      <trkpt lat="47.14871" lon="5.51848">
        <ele>328</ele>
        <time>2023-05-01T11:33:25+02:00</time>
      </trkpt>
      <trkpt lat="47.14881" lon="5.51861">
        <ele>329</ele>
        <time>2023-05-01T11:33:36+02:00</time>
      </trkpt>
      <trkpt lat="47.14893" lon="5.5188">
        <ele>330</ele>
        <time>2023-05-01T11:33:49+02:00</time>
      </trkpt>
      <trkpt lat="47.14902" lon="5.51896">
        <ele>331</ele>
        <time>2023-05-01T11:34:00+02:00</time>
      </trkpt>
      <trkpt lat="47.14912" lon="5.5191">
        <ele>332</ele>
        <time>2023-05-01T11:34:12+02:00</time>
      </trkpt>
      <trkpt lat="47.14921" lon="5.51927">
        <ele>333</ele>
        <time>2023-05-01T11:34:34+02:00</time>
      </trkpt>
      <trkpt lat="47.14934" lon="5.51943">
        <ele>334</ele>
        <time>2023-05-01T11:34:45+02:00</time>
      </trkpt>
      <trkpt lat="47.14946" lon="5.51958">
        <ele>334</ele>
        <time>2023-05-01T11:34:56+02:00</time>
      </trkpt>
      <trkpt lat="47.14955" lon="5.51976">
        <ele>335</ele>
        <time>2023-05-01T11:35:08+02:00</time>
      </trkpt>
      <trkpt lat="47.14964" lon="5.51995">
        <ele>336</ele>
        <time>2023-05-01T11:35:21+02:00</time>
      </trkpt>
      <trkpt lat="47.14973" lon="5.52014">
        <ele>336</ele>
        <time>2023-05-01T11:35:35+02:00</time>
      </trkpt>
      <trkpt lat="47.14982" lon="5.52029">
        <ele>337</ele>
        <time>2023-05-01T11:35:46+02:00</time>
      </trkpt>
      <trkpt lat="47.14991" lon="5.52046">
        <ele>336</ele>
        <time>2023-05-01T11:35:56+02:00</time>
      </trkpt>
      <trkpt lat="47.15002" lon="5.52062">
        <ele>337</ele>
        <time>2023-05-01T11:36:07+02:00</time>
      </trkpt>
      <trkpt lat="47.15013" lon="5.52078">
        <ele>338</ele>
        <time>2023-05-01T11:36:21+02:00</time>
      </trkpt>
      <trkpt lat="47.15022" lon="5.52061">
        <ele>337</ele>
        <time>2023-05-01T11:36:38+02:00</time>
      </trkpt>
      <trkpt lat="47.15033" lon="5.52042">
        <ele>337</ele>
        <time>2023-05-01T11:36:52+02:00</time>
      </trkpt>
      <trkpt lat="47.15044" lon="5.52024">
        <ele>336</ele>
        <time>2023-05-01T11:37:05+02:00</time>
      </trkpt>
      <trkpt lat="47.15055" lon="5.5201">
        <ele>337</ele>
        <time>2023-05-01T11:37:19+02:00</time>
      </trkpt>
      <trkpt lat="47.15066" lon="5.51993">
        <ele>338</ele>
        <time>2023-05-01T11:37:32+02:00</time>
      </trkpt>
      <trkpt lat="47.15076" lon="5.51977">
        <ele>338</ele>
        <time>2023-05-01T11:37:44+02:00</time>
      </trkpt>
      <trkpt lat="47.15087" lon="5.51963">
        <ele>336</ele>
        <time>2023-05-01T11:37:57+02:00</time>
      </trkpt>
      <trkpt lat="47.15096" lon="5.51946">
        <ele>333</ele>
        <time>2023-05-01T11:38:11+02:00</time>
      </trkpt>
      <trkpt lat="47.15108" lon="5.51929">
        <ele>331</ele>
        <time>2023-05-01T11:38:25+02:00</time>
      </trkpt>
      <trkpt lat="47.15117" lon="5.51907">
        <ele>329</ele>
        <time>2023-05-01T11:38:41+02:00</time>
      </trkpt>
      <trkpt lat="47.15125" lon="5.51889">
        <ele>328</ele>
        <time>2023-05-01T11:38:52+02:00</time>
      </trkpt>
      <trkpt lat="47.15132" lon="5.51869">
        <ele>327</ele>
        <time>2023-05-01T11:39:05+02:00</time>
      </trkpt>
      <trkpt lat="47.15139" lon="5.51849">
        <ele>326</ele>
        <time>2023-05-01T11:39:18+02:00</time>
      </trkpt>
      <trkpt lat="47.15147" lon="5.51832">
        <ele>325</ele>
        <time>2023-05-01T11:39:29+02:00</time>
      </trkpt>
      <trkpt lat="47.15156" lon="5.51815">
        <ele>325</ele>
        <time>2023-05-01T11:39:40+02:00</time>
      </trkpt>
      <trkpt lat="47.15163" lon="5.51797">
        <ele>324</ele>
        <time>2023-05-01T11:39:51+02:00</time>
      </trkpt>
      <trkpt lat="47.15171" lon="5.51776">
        <ele>323</ele>
        <time>2023-05-01T11:40:05+02:00</time>
      </trkpt>
      <trkpt lat="47.15182" lon="5.51758">
        <ele>322</ele>
        <time>2023-05-01T11:40:19+02:00</time>
      </trkpt>
      <trkpt lat="47.15189" lon="5.51737">
        <ele>321</ele>
        <time>2023-05-01T11:40:32+02:00</time>
      </trkpt>
      <trkpt lat="47.15196" lon="5.51717">
        <ele>321</ele>
        <time>2023-05-01T11:40:45+02:00</time>
      </trkpt>
      <trkpt lat="47.15204" lon="5.517">
        <ele>320</ele>
        <time>2023-05-01T11:40:56+02:00</time>
      </trkpt>
      <trkpt lat="47.15211" lon="5.51681">
        <ele>320</ele>
        <time>2023-05-01T11:41:09+02:00</time>
      </trkpt>
      <trkpt lat="47.15221" lon="5.51661">
        <ele>320</ele>
        <time>2023-05-01T11:41:23+02:00</time>
      </trkpt>
      <trkpt lat="47.15227" lon="5.51642">
        <ele>320</ele>
        <time>2023-05-01T11:41:35+02:00</time>
      </trkpt>
      <trkpt lat="47.15238" lon="5.51623">
        <ele>320</ele>
        <time>2023-05-01T11:42:22+02:00</time>
      </trkpt>
      <trkpt lat="47.15246" lon="5.51602">
        <ele>320</ele>
        <time>2023-05-01T11:42:33+02:00</time>
      </trkpt>
      <trkpt lat="47.15253" lon="5.51583">
        <ele>320</ele>
        <time>2023-05-01T11:42:45+02:00</time>
      </trkpt>
      <trkpt lat="47.15261" lon="5.51561">
        <ele>321</ele>
        <time>2023-05-01T11:43:08+02:00</time>
      </trkpt>
      <trkpt lat="47.1527" lon="5.5154">
        <ele>321</ele>
        <time>2023-05-01T11:43:21+02:00</time>
      </trkpt>
      <trkpt lat="47.15278" lon="5.51523">
        <ele>321</ele>
        <time>2023-05-01T11:43:31+02:00</time>
      </trkpt>
      <trkpt lat="47.15285" lon="5.51506">
        <ele>321</ele>
        <time>2023-05-01T11:43:42+02:00</time>
      </trkpt>
      <trkpt lat="47.15291" lon="5.51486">
        <ele>322</ele>
        <time>2023-05-01T11:43:53+02:00</time>
      </trkpt>
      <trkpt lat="47.15297" lon="5.51465">
        <ele>322</ele>
        <time>2023-05-01T11:44:06+02:00</time>
      </trkpt>
      <trkpt lat="47.15306" lon="5.51446">
        <ele>322</ele>
        <time>2023-05-01T11:44:20+02:00</time>
      </trkpt>
      <trkpt lat="47.15315" lon="5.5143">
        <ele>322</ele>
        <time>2023-05-01T11:44:31+02:00</time>
      </trkpt>
      <trkpt lat="47.15322" lon="5.5141">
        <ele>323</ele>
        <time>2023-05-01T11:44:42+02:00</time>
      </trkpt>
      <trkpt lat="47.15329" lon="5.51389">
        <ele>324</ele>
        <time>2023-05-01T11:44:55+02:00</time>
      </trkpt>
      <trkpt lat="47.15337" lon="5.51371">
        <ele>325</ele>
        <time>2023-05-01T11:45:08+02:00</time>
      </trkpt>
      <trkpt lat="47.15343" lon="5.51351">
        <ele>327</ele>
        <time>2023-05-01T11:45:21+02:00</time>
      </trkpt>
      <trkpt lat="47.1536" lon="5.51355">
        <ele>329</ele>
        <time>2023-05-01T11:45:51+02:00</time>
      </trkpt>
      <trkpt lat="47.15375" lon="5.51355">
        <ele>330</ele>
        <time>2023-05-01T11:46:08+02:00</time>
      </trkpt>
      <trkpt lat="47.15392" lon="5.51358">
        <ele>332</ele>
        <time>2023-05-01T11:46:21+02:00</time>
      </trkpt>
      <trkpt lat="47.15406" lon="5.51359">
        <ele>332</ele>
        <time>2023-05-01T11:46:33+02:00</time>
      </trkpt>
      <trkpt lat="47.15423" lon="5.51361">
        <ele>332</ele>
        <time>2023-05-01T11:46:46+02:00</time>
      </trkpt>
      <trkpt lat="47.15439" lon="5.51364">
        <ele>332</ele>
        <time>2023-05-01T11:46:59+02:00</time>
      </trkpt>
      <trkpt lat="47.15454" lon="5.51361">
        <ele>332</ele>
        <time>2023-05-01T11:47:12+02:00</time>
      </trkpt>
      <trkpt lat="47.15468" lon="5.51351">
        <ele>332</ele>
        <time>2023-05-01T11:47:25+02:00</time>
      </trkpt>
      <trkpt lat="47.15481" lon="5.51339">
        <ele>331</ele>
        <time>2023-05-01T11:47:36+02:00</time>
      </trkpt>
      <trkpt lat="47.15494" lon="5.51324">
        <ele>331</ele>
        <time>2023-05-01T11:47:50+02:00</time>
      </trkpt>
      <trkpt lat="47.15508" lon="5.51316">
        <ele>329</ele>
        <time>2023-05-01T11:48:03+02:00</time>
      </trkpt>
      <trkpt lat="47.15518" lon="5.51302">
        <ele>329</ele>
        <time>2023-05-01T11:48:14+02:00</time>
      </trkpt>
      <trkpt lat="47.15523" lon="5.51277">
        <ele>329</ele>
        <time>2023-05-01T11:48:25+02:00</time>
      </trkpt>
      <trkpt lat="47.15537" lon="5.51267">
        <ele>327</ele>
        <time>2023-05-01T11:48:41+02:00</time>
      </trkpt>
      <trkpt lat="47.15547" lon="5.51279">
        <ele>325</ele>
        <time>2023-05-01T11:49:22+02:00</time>
      </trkpt>
      <trkpt lat="47.1556" lon="5.51291">
        <ele>323</ele>
        <time>2023-05-01T11:49:33+02:00</time>
      </trkpt>
      <trkpt lat="47.15576" lon="5.51297">
        <ele>322</ele>
        <time>2023-05-01T11:49:44+02:00</time>
      </trkpt>
      <trkpt lat="47.15589" lon="5.51307">
        <ele>321</ele>
        <time>2023-05-01T11:49:55+02:00</time>
      </trkpt>
      <trkpt lat="47.15602" lon="5.51314">
        <ele>321</ele>
        <time>2023-05-01T11:50:05+02:00</time>
      </trkpt>
      <trkpt lat="47.15617" lon="5.5132">
        <ele>321</ele>
        <time>2023-05-01T11:50:16+02:00</time>
      </trkpt>
      <trkpt lat="47.15634" lon="5.51323">
        <ele>322</ele>
        <time>2023-05-01T11:50:27+02:00</time>
      </trkpt>
      <trkpt lat="47.15649" lon="5.5133">
        <ele>324</ele>
        <time>2023-05-01T11:50:41+02:00</time>
      </trkpt>
      <trkpt lat="47.15663" lon="5.51341">
        <ele>326</ele>
        <time>2023-05-01T11:50:56+02:00</time>
      </trkpt>
      <trkpt lat="47.1568" lon="5.51338">
        <ele>328</ele>
        <time>2023-05-01T11:51:08+02:00</time>
      </trkpt>
      <trkpt lat="47.15693" lon="5.51347">
        <ele>329</ele>
        <time>2023-05-01T11:51:19+02:00</time>
      </trkpt>
      <trkpt lat="47.15703" lon="5.51365">
        <ele>332</ele>
        <time>2023-05-01T11:53:57+02:00</time>
      </trkpt>
      <trkpt lat="47.15715" lon="5.51377">
        <ele>332</ele>
        <time>2023-05-01T11:54:07+02:00</time>
      </trkpt>
      <trkpt lat="47.1573" lon="5.51384">
        <ele>332</ele>
        <time>2023-05-01T11:54:18+02:00</time>
      </trkpt>
      <trkpt lat="47.15743" lon="5.51392">
        <ele>332</ele>
        <time>2023-05-01T11:54:29+02:00</time>
      </trkpt>
      <trkpt lat="47.15756" lon="5.51394">
        <ele>333</ele>
        <time>2023-05-01T11:54:40+02:00</time>
      </trkpt>
      <trkpt lat="47.15772" lon="5.51398">
        <ele>333</ele>
        <time>2023-05-01T11:54:51+02:00</time>
      </trkpt>
      <trkpt lat="47.15786" lon="5.51403">
        <ele>333</ele>
        <time>2023-05-01T11:55:02+02:00</time>
      </trkpt>
      <trkpt lat="47.15802" lon="5.51407">
        <ele>333</ele>
        <time>2023-05-01T11:55:20+02:00</time>
      </trkpt>
      <trkpt lat="47.15814" lon="5.51423">
        <ele>333</ele>
        <time>2023-05-01T11:55:33+02:00</time>
      </trkpt>
      <trkpt lat="47.15828" lon="5.51432">
        <ele>333</ele>
        <time>2023-05-01T11:55:46+02:00</time>
      </trkpt>
      <trkpt lat="47.15837" lon="5.51447">
        <ele>333</ele>
        <time>2023-05-01T11:55:57+02:00</time>
      </trkpt>
      <trkpt lat="47.15848" lon="5.51462">
        <ele>333</ele>
        <time>2023-05-01T11:56:08+02:00</time>
      </trkpt>
      <trkpt lat="47.15858" lon="5.51477">
        <ele>333</ele>
        <time>2023-05-01T11:56:22+02:00</time>
      </trkpt>
      <trkpt lat="47.1587" lon="5.51491">
        <ele>333</ele>
        <time>2023-05-01T11:56:35+02:00</time>
      </trkpt>
      <trkpt lat="47.15879" lon="5.51507">
        <ele>333</ele>
        <time>2023-05-01T11:56:45+02:00</time>
      </trkpt>
      <trkpt lat="47.15889" lon="5.51524">
        <ele>334</ele>
        <time>2023-05-01T11:57:15+02:00</time>
      </trkpt>
      <trkpt lat="47.15899" lon="5.51545">
        <ele>333</ele>
        <time>2023-05-01T11:57:26+02:00</time>
      </trkpt>
      <trkpt lat="47.15909" lon="5.51564">
        <ele>333</ele>
        <time>2023-05-01T11:57:39+02:00</time>
      </trkpt>
      <trkpt lat="47.1592" lon="5.5158">
        <ele>334</ele>
        <time>2023-05-01T11:57:51+02:00</time>
      </trkpt>
      <trkpt lat="47.15929" lon="5.51597">
        <ele>335</ele>
        <time>2023-05-01T11:58:02+02:00</time>
      </trkpt>
      <trkpt lat="47.15939" lon="5.51616">
        <ele>335</ele>
        <time>2023-05-01T11:58:17+02:00</time>
      </trkpt>
      <trkpt lat="47.1595" lon="5.51633">
        <ele>335</ele>
        <time>2023-05-01T11:58:30+02:00</time>
      </trkpt>
      <trkpt lat="47.15959" lon="5.51651">
        <ele>335</ele>
        <time>2023-05-01T11:58:41+02:00</time>
      </trkpt>
      <trkpt lat="47.15971" lon="5.51669">
        <ele>335</ele>
        <time>2023-05-01T11:58:52+02:00</time>
      </trkpt>
      <trkpt lat="47.15985" lon="5.51684">
        <ele>335</ele>
        <time>2023-05-01T11:59:04+02:00</time>
      </trkpt>
      <trkpt lat="47.15997" lon="5.51701">
        <ele>335</ele>
        <time>2023-05-01T11:59:19+02:00</time>
      </trkpt>
      <trkpt lat="47.16009" lon="5.51715">
        <ele>334</ele>
        <time>2023-05-01T11:59:30+02:00</time>
      </trkpt>
      <trkpt lat="47.1602" lon="5.51728">
        <ele>334</ele>
        <time>2023-05-01T11:59:41+02:00</time>
      </trkpt>
      <trkpt lat="47.16034" lon="5.51742">
        <ele>334</ele>
        <time>2023-05-01T11:59:52+02:00</time>
      </trkpt>
      <trkpt lat="47.16048" lon="5.5175">
        <ele>334</ele>
        <time>2023-05-01T12:00:04+02:00</time>
      </trkpt>
      <trkpt lat="47.16062" lon="5.51749">
        <ele>333</ele>
        <time>2023-05-01T12:00:15+02:00</time>
      </trkpt>
      <trkpt lat="47.16075" lon="5.51758">
        <ele>334</ele>
        <time>2023-05-01T12:00:25+02:00</time>
      </trkpt>
      <trkpt lat="47.16091" lon="5.51759">
        <ele>335</ele>
        <time>2023-05-01T12:00:38+02:00</time>
      </trkpt>
      <trkpt lat="47.16105" lon="5.51757">
        <ele>336</ele>
        <time>2023-05-01T12:00:51+02:00</time>
      </trkpt>
      <trkpt lat="47.16122" lon="5.51756">
        <ele>337</ele>
        <time>2023-05-01T12:01:04+02:00</time>
      </trkpt>
      <trkpt lat="47.16137" lon="5.51762">
        <ele>339</ele>
        <time>2023-05-01T12:01:17+02:00</time>
      </trkpt>
      <trkpt lat="47.16154" lon="5.51764">
        <ele>340</ele>
        <time>2023-05-01T12:01:28+02:00</time>
      </trkpt>
      <trkpt lat="47.16169" lon="5.51769">
        <ele>342</ele>
        <time>2023-05-01T12:01:40+02:00</time>
      </trkpt>
      <trkpt lat="47.16183" lon="5.51774">
        <ele>342</ele>
        <time>2023-05-01T12:01:54+02:00</time>
      </trkpt>
      <trkpt lat="47.16197" lon="5.51775">
        <ele>343</ele>
        <time>2023-05-01T12:02:05+02:00</time>
      </trkpt>
      <trkpt lat="47.16214" lon="5.51773">
        <ele>344</ele>
        <time>2023-05-01T12:02:15+02:00</time>
      </trkpt>
      <trkpt lat="47.16227" lon="5.51766">
        <ele>345</ele>
        <time>2023-05-01T12:02:26+02:00</time>
      </trkpt>
      <trkpt lat="47.16242" lon="5.5176">
        <ele>344</ele>
        <time>2023-05-01T12:02:37+02:00</time>
      </trkpt>
      <trkpt lat="47.16256" lon="5.51749">
        <ele>343</ele>
        <time>2023-05-01T12:02:48+02:00</time>
      </trkpt>
      <trkpt lat="47.16269" lon="5.51743">
        <ele>342</ele>
        <time>2023-05-01T12:02:59+02:00</time>
      </trkpt>
      <trkpt lat="47.16282" lon="5.51732">
        <ele>341</ele>
        <time>2023-05-01T12:03:10+02:00</time>
      </trkpt>
      <trkpt lat="47.16296" lon="5.51721">
        <ele>340</ele>
        <time>2023-05-01T12:03:21+02:00</time>
      </trkpt>
      <trkpt lat="47.16307" lon="5.51708">
        <ele>338</ele>
        <time>2023-05-01T12:03:33+02:00</time>
      </trkpt>
      <trkpt lat="47.1632" lon="5.51699">
        <ele>337</ele>
        <time>2023-05-01T12:03:44+02:00</time>
      </trkpt>
      <trkpt lat="47.16333" lon="5.51692">
        <ele>336</ele>
        <time>2023-05-01T12:03:55+02:00</time>
      </trkpt>
      <trkpt lat="47.16349" lon="5.5169">
        <ele>335</ele>
        <time>2023-05-01T12:04:06+02:00</time>
      </trkpt>
      <trkpt lat="47.16364" lon="5.51687">
        <ele>335</ele>
        <time>2023-05-01T12:04:17+02:00</time>
      </trkpt>
      <trkpt lat="47.1638" lon="5.51686">
        <ele>334</ele>
        <time>2023-05-01T12:04:28+02:00</time>
      </trkpt>
      <trkpt lat="47.16396" lon="5.51685">
        <ele>334</ele>
        <time>2023-05-01T12:04:41+02:00</time>
      </trkpt>
      <trkpt lat="47.1641" lon="5.51685">
        <ele>333</ele>
        <time>2023-05-01T12:04:52+02:00</time>
      </trkpt>
      <trkpt lat="47.16424" lon="5.51683">
        <ele>333</ele>
        <time>2023-05-01T12:05:03+02:00</time>
      </trkpt>
      <trkpt lat="47.16438" lon="5.51682">
        <ele>332</ele>
        <time>2023-05-01T12:05:14+02:00</time>
      </trkpt>
      <trkpt lat="47.16451" lon="5.51681">
        <ele>331</ele>
        <time>2023-05-01T12:05:26+02:00</time>
      </trkpt>
      <trkpt lat="47.16467" lon="5.51681">
        <ele>331</ele>
        <time>2023-05-01T12:05:39+02:00</time>
      </trkpt>
      <trkpt lat="47.16483" lon="5.5168">
        <ele>331</ele>
        <time>2023-05-01T12:05:52+02:00</time>
      </trkpt>
      <trkpt lat="47.16497" lon="5.51679">
        <ele>331</ele>
        <time>2023-05-01T12:06:03+02:00</time>
      </trkpt>
      <trkpt lat="47.16513" lon="5.51676">
        <ele>330</ele>
        <time>2023-05-01T12:06:14+02:00</time>
      </trkpt>
      <trkpt lat="47.16527" lon="5.51677">
        <ele>330</ele>
        <time>2023-05-01T12:06:25+02:00</time>
      </trkpt>
      <trkpt lat="47.16543" lon="5.51676">
        <ele>330</ele>
        <time>2023-05-01T12:06:36+02:00</time>
      </trkpt>
      <trkpt lat="47.1656" lon="5.51678">
        <ele>330</ele>
        <time>2023-05-01T12:06:49+02:00</time>
      </trkpt>
      <trkpt lat="47.16575" lon="5.51679">
        <ele>329</ele>
        <time>2023-05-01T12:07:00+02:00</time>
      </trkpt>
      <trkpt lat="47.16593" lon="5.51679">
        <ele>329</ele>
        <time>2023-05-01T12:07:14+02:00</time>
      </trkpt>
      <trkpt lat="47.16606" lon="5.51675">
        <ele>329</ele>
        <time>2023-05-01T12:07:25+02:00</time>
      </trkpt>
      <trkpt lat="47.16621" lon="5.51671">
        <ele>329</ele>
        <time>2023-05-01T12:07:36+02:00</time>
      </trkpt>
      <trkpt lat="47.16637" lon="5.51671">
        <ele>329</ele>
        <time>2023-05-01T12:07:47+02:00</time>
      </trkpt>
      <trkpt lat="47.16652" lon="5.51664">
        <ele>329</ele>
        <time>2023-05-01T12:08:00+02:00</time>
      </trkpt>
      <trkpt lat="47.16668" lon="5.51666">
        <ele>329</ele>
        <time>2023-05-01T12:08:13+02:00</time>
      </trkpt>
      <trkpt lat="47.16684" lon="5.51662">
        <ele>329</ele>
        <time>2023-05-01T12:08:26+02:00</time>
      </trkpt>
      <trkpt lat="47.16699" lon="5.5166">
        <ele>329</ele>
        <time>2023-05-01T12:08:37+02:00</time>
      </trkpt>
      <trkpt lat="47.16714" lon="5.51658">
        <ele>329</ele>
        <time>2023-05-01T12:08:49+02:00</time>
      </trkpt>
      <trkpt lat="47.1673" lon="5.51658">
        <ele>329</ele>
        <time>2023-05-01T12:09:00+02:00</time>
      </trkpt>
      <trkpt lat="47.16744" lon="5.51653">
        <ele>329</ele>
        <time>2023-05-01T12:09:12+02:00</time>
      </trkpt>
      <trkpt lat="47.16758" lon="5.51655">
        <ele>329</ele>
        <time>2023-05-01T12:09:22+02:00</time>
      </trkpt>
      <trkpt lat="47.16772" lon="5.51654">
        <ele>330</ele>
        <time>2023-05-01T12:09:33+02:00</time>
      </trkpt>
      <trkpt lat="47.16787" lon="5.51657">
        <ele>331</ele>
        <time>2023-05-01T12:09:43+02:00</time>
      </trkpt>
      <trkpt lat="47.168" lon="5.51651">
        <ele>330</ele>
        <time>2023-05-01T12:09:55+02:00</time>
      </trkpt>
      <trkpt lat="47.16814" lon="5.51652">
        <ele>331</ele>
        <time>2023-05-01T12:10:05+02:00</time>
      </trkpt>
      <trkpt lat="47.16828" lon="5.51651">
        <ele>331</ele>
        <time>2023-05-01T12:10:16+02:00</time>
      </trkpt>
      <trkpt lat="47.16842" lon="5.51641">
        <ele>331</ele>
        <time>2023-05-01T12:10:27+02:00</time>
      </trkpt>
      <trkpt lat="47.16859" lon="5.51634">
        <ele>332</ele>
        <time>2023-05-01T12:10:39+02:00</time>
      </trkpt>
      <trkpt lat="47.16871" lon="5.5162">
        <ele>332</ele>
        <time>2023-05-01T12:10:49+02:00</time>
      </trkpt>
      <trkpt lat="47.16885" lon="5.51622">
        <ele>331</ele>
        <time>2023-05-01T12:10:59+02:00</time>
      </trkpt>
      <trkpt lat="47.16899" lon="5.51619">
        <ele>332</ele>
        <time>2023-05-01T12:11:10+02:00</time>
      </trkpt>
      <trkpt lat="47.1691" lon="5.51602">
        <ele>333</ele>
        <time>2023-05-01T12:11:20+02:00</time>
      </trkpt>
      <trkpt lat="47.16919" lon="5.51587">
        <ele>332</ele>
        <time>2023-05-01T12:11:29+02:00</time>
      </trkpt>
      <trkpt lat="47.1693" lon="5.51574">
        <ele>332</ele>
        <time>2023-05-01T12:11:39+02:00</time>
      </trkpt>
      <trkpt lat="47.16943" lon="5.5156">
        <ele>332</ele>
        <time>2023-05-01T12:11:53+02:00</time>
      </trkpt>
      <trkpt lat="47.16951" lon="5.51543">
        <ele>332</ele>
        <time>2023-05-01T12:12:04+02:00</time>
      </trkpt>
      <trkpt lat="47.16962" lon="5.51529">
        <ele>331</ele>
        <time>2023-05-01T12:12:14+02:00</time>
      </trkpt>
      <trkpt lat="47.16975" lon="5.51521">
        <ele>330</ele>
        <time>2023-05-01T12:12:25+02:00</time>
      </trkpt>
      <trkpt lat="47.16985" lon="5.51504">
        <ele>329</ele>
        <time>2023-05-01T12:12:36+02:00</time>
      </trkpt>
      <trkpt lat="47.16996" lon="5.51492">
        <ele>329</ele>
        <time>2023-05-01T12:12:47+02:00</time>
      </trkpt>
      <trkpt lat="47.17008" lon="5.51479">
        <ele>328</ele>
        <time>2023-05-01T12:13:01+02:00</time>
      </trkpt>
      <trkpt lat="47.17021" lon="5.51472">
        <ele>327</ele>
        <time>2023-05-01T12:13:15+02:00</time>
      </trkpt>
      <trkpt lat="47.17035" lon="5.51462">
        <ele>327</ele>
        <time>2023-05-01T12:13:26+02:00</time>
      </trkpt>
      <trkpt lat="47.17051" lon="5.51454">
        <ele>327</ele>
        <time>2023-05-01T12:13:39+02:00</time>
      </trkpt>
      <trkpt lat="47.17065" lon="5.5145">
        <ele>326</ele>
        <time>2023-05-01T12:13:52+02:00</time>
      </trkpt>
      <trkpt lat="47.1708" lon="5.51453">
        <ele>325</ele>
        <time>2023-05-01T12:14:06+02:00</time>
      </trkpt>
      <trkpt lat="47.17094" lon="5.51462">
        <ele>326</ele>
        <time>2023-05-01T12:14:19+02:00</time>
      </trkpt>
      <trkpt lat="47.17109" lon="5.51466">
        <ele>326</ele>
        <time>2023-05-01T12:14:30+02:00</time>
      </trkpt>
      <trkpt lat="47.17124" lon="5.51462">
        <ele>327</ele>
        <time>2023-05-01T12:14:41+02:00</time>
      </trkpt>
      <trkpt lat="47.17139" lon="5.51458">
        <ele>327</ele>
        <time>2023-05-01T12:14:51+02:00</time>
      </trkpt>
      <trkpt lat="47.17155" lon="5.51456">
        <ele>328</ele>
        <time>2023-05-01T12:15:05+02:00</time>
      </trkpt>
      <trkpt lat="47.17167" lon="5.51443">
        <ele>328</ele>
        <time>2023-05-01T12:15:14+02:00</time>
      </trkpt>
      <trkpt lat="47.17175" lon="5.51423">
        <ele>331</ele>
        <time>2023-05-01T12:15:25+02:00</time>
      </trkpt>
      <trkpt lat="47.17181" lon="5.51401">
        <ele>331</ele>
        <time>2023-05-01T12:15:36+02:00</time>
      </trkpt>
      <trkpt lat="47.17189" lon="5.51384">
        <ele>332</ele>
        <time>2023-05-01T12:15:47+02:00</time>
      </trkpt>
      <trkpt lat="47.17199" lon="5.51365">
        <ele>333</ele>
        <time>2023-05-01T12:16:01+02:00</time>
      </trkpt>
      <trkpt lat="47.1721" lon="5.51351">
        <ele>333</ele>
        <time>2023-05-01T12:16:12+02:00</time>
      </trkpt>
      <trkpt lat="47.1722" lon="5.51336">
        <ele>333</ele>
        <time>2023-05-01T12:16:23+02:00</time>
      </trkpt>
      <trkpt lat="47.17234" lon="5.51323">
        <ele>333</ele>
        <time>2023-05-01T12:16:34+02:00</time>
      </trkpt>
      <trkpt lat="47.17248" lon="5.51314">
        <ele>333</ele>
        <time>2023-05-01T12:16:47+02:00</time>
      </trkpt>
      <trkpt lat="47.17262" lon="5.51308">
        <ele>332</ele>
        <time>2023-05-01T12:17:00+02:00</time>
      </trkpt>
      <trkpt lat="47.17278" lon="5.51302">
        <ele>333</ele>
        <time>2023-05-01T12:17:11+02:00</time>
      </trkpt>
      <trkpt lat="47.1729" lon="5.51292">
        <ele>333</ele>
        <time>2023-05-01T12:17:22+02:00</time>
      </trkpt>
      <trkpt lat="47.17303" lon="5.51281">
        <ele>334</ele>
        <time>2023-05-01T12:17:33+02:00</time>
      </trkpt>
      <trkpt lat="47.17315" lon="5.51266">
        <ele>336</ele>
        <time>2023-05-01T12:17:44+02:00</time>
      </trkpt>
      <trkpt lat="47.17327" lon="5.51247">
        <ele>337</ele>
        <time>2023-05-01T12:17:55+02:00</time>
      </trkpt>
      <trkpt lat="47.17336" lon="5.51231">
        <ele>337</ele>
        <time>2023-05-01T12:18:07+02:00</time>
      </trkpt>
      <trkpt lat="47.17347" lon="5.5122">
        <ele>336</ele>
        <time>2023-05-01T12:18:20+02:00</time>
      </trkpt>
      <trkpt lat="47.17362" lon="5.51213">
        <ele>336</ele>
        <time>2023-05-01T12:18:33+02:00</time>
      </trkpt>
      <trkpt lat="47.17377" lon="5.51205">
        <ele>337</ele>
        <time>2023-05-01T12:18:44+02:00</time>
      </trkpt>
      <trkpt lat="47.17391" lon="5.51197">
        <ele>337</ele>
        <time>2023-05-01T12:18:55+02:00</time>
      </trkpt>
      <trkpt lat="47.17404" lon="5.51184">
        <ele>338</ele>
        <time>2023-05-01T12:19:09+02:00</time>
      </trkpt>
      <trkpt lat="47.17419" lon="5.51175">
        <ele>338</ele>
        <time>2023-05-01T12:19:22+02:00</time>
      </trkpt>
      <trkpt lat="47.17432" lon="5.51167">
        <ele>337</ele>
        <time>2023-05-01T12:19:33+02:00</time>
      </trkpt>
      <trkpt lat="47.17447" lon="5.51164">
        <ele>336</ele>
        <time>2023-05-01T12:19:46+02:00</time>
      </trkpt>
      <trkpt lat="47.17461" lon="5.51165">
        <ele>336</ele>
        <time>2023-05-01T12:19:57+02:00</time>
      </trkpt>
      <trkpt lat="47.17476" lon="5.51152">
        <ele>335</ele>
        <time>2023-05-01T12:20:08+02:00</time>
      </trkpt>
      <trkpt lat="47.17488" lon="5.51142">
        <ele>335</ele>
        <time>2023-05-01T12:20:16+02:00</time>
      </trkpt>
      <trkpt lat="47.17499" lon="5.51129">
        <ele>334</ele>
        <time>2023-05-01T12:20:24+02:00</time>
      </trkpt>
      <trkpt lat="47.17505" lon="5.51106">
        <ele>334</ele>
        <time>2023-05-01T12:20:37+02:00</time>
      </trkpt>
      <trkpt lat="47.17512" lon="5.51085">
        <ele>334</ele>
        <time>2023-05-01T12:20:50+02:00</time>
      </trkpt>
      <trkpt lat="47.17518" lon="5.51065">
        <ele>334</ele>
        <time>2023-05-01T12:21:01+02:00</time>
      </trkpt>
      <trkpt lat="47.17522" lon="5.51043">
        <ele>333</ele>
        <time>2023-05-01T12:21:11+02:00</time>
      </trkpt>
      <trkpt lat="47.17528" lon="5.51023">
        <ele>333</ele>
        <time>2023-05-01T12:21:25+02:00</time>
      </trkpt>
      <trkpt lat="47.17532" lon="5.51">
        <ele>334</ele>
        <time>2023-05-01T12:21:38+02:00</time>
      </trkpt>
      <trkpt lat="47.17535" lon="5.50978">
        <ele>334</ele>
        <time>2023-05-01T12:21:56+02:00</time>
      </trkpt>
      <trkpt lat="47.17543" lon="5.50959">
        <ele>334</ele>
        <time>2023-05-01T12:22:08+02:00</time>
      </trkpt>
      <trkpt lat="47.17547" lon="5.50937">
        <ele>333</ele>
        <time>2023-05-01T12:22:18+02:00</time>
      </trkpt>
      <trkpt lat="47.17551" lon="5.50917">
        <ele>333</ele>
        <time>2023-05-01T12:22:29+02:00</time>
      </trkpt>
      <trkpt lat="47.17561" lon="5.50898">
        <ele>335</ele>
        <time>2023-05-01T12:22:43+02:00</time>
      </trkpt>
      <trkpt lat="47.17574" lon="5.50884">
        <ele>336</ele>
        <time>2023-05-01T12:22:59+02:00</time>
      </trkpt>
      <trkpt lat="47.17586" lon="5.50873">
        <ele>337</ele>
        <time>2023-05-01T12:23:11+02:00</time>
      </trkpt>
      <trkpt lat="47.17599" lon="5.50853">
        <ele>338</ele>
        <time>2023-05-01T12:23:22+02:00</time>
      </trkpt>
      <trkpt lat="47.17608" lon="5.50838">
        <ele>340</ele>
        <time>2023-05-01T12:23:33+02:00</time>
      </trkpt>
      <trkpt lat="47.17616" lon="5.50817">
        <ele>340</ele>
        <time>2023-05-01T12:23:46+02:00</time>
      </trkpt>
      <trkpt lat="47.17625" lon="5.50796">
        <ele>339</ele>
        <time>2023-05-01T12:23:59+02:00</time>
      </trkpt>
      <trkpt lat="47.17634" lon="5.50775">
        <ele>339</ele>
        <time>2023-05-01T12:24:12+02:00</time>
      </trkpt>
      <trkpt lat="47.17641" lon="5.50754">
        <ele>337</ele>
        <time>2023-05-01T12:24:26+02:00</time>
      </trkpt>
      <trkpt lat="47.17646" lon="5.50731">
        <ele>336</ele>
        <time>2023-05-01T12:24:38+02:00</time>
      </trkpt>
      <trkpt lat="47.17648" lon="5.5071">
        <ele>335</ele>
        <time>2023-05-01T12:24:48+02:00</time>
      </trkpt>
      <trkpt lat="47.17657" lon="5.5069">
        <ele>334</ele>
        <time>2023-05-01T12:25:02+02:00</time>
      </trkpt>
      <trkpt lat="47.17659" lon="5.50668">
        <ele>332</ele>
        <time>2023-05-01T12:26:43+02:00</time>
      </trkpt>
      <trkpt lat="47.17668" lon="5.50652">
        <ele>332</ele>
        <time>2023-05-01T12:26:54+02:00</time>
      </trkpt>
      <trkpt lat="47.17678" lon="5.50638">
        <ele>332</ele>
        <time>2023-05-01T12:27:03+02:00</time>
      </trkpt>
      <trkpt lat="47.17688" lon="5.50619">
        <ele>332</ele>
        <time>2023-05-01T12:27:14+02:00</time>
      </trkpt>
      <trkpt lat="47.17692" lon="5.506">
        <ele>332</ele>
        <time>2023-05-01T12:27:34+02:00</time>
      </trkpt>
      <trkpt lat="47.17701" lon="5.50583">
        <ele>332</ele>
        <time>2023-05-01T12:27:45+02:00</time>
      </trkpt>
      <trkpt lat="47.17713" lon="5.50568">
        <ele>332</ele>
        <time>2023-05-01T12:27:55+02:00</time>
      </trkpt>
      <trkpt lat="47.17722" lon="5.50552">
        <ele>333</ele>
        <time>2023-05-01T12:28:04+02:00</time>
      </trkpt>
      <trkpt lat="47.17731" lon="5.50536">
        <ele>332</ele>
        <time>2023-05-01T12:28:14+02:00</time>
      </trkpt>
      <trkpt lat="47.17738" lon="5.50518">
        <ele>332</ele>
        <time>2023-05-01T12:28:25+02:00</time>
      </trkpt>
      <trkpt lat="47.17747" lon="5.50496">
        <ele>332</ele>
        <time>2023-05-01T12:28:38+02:00</time>
      </trkpt>
      <trkpt lat="47.17757" lon="5.50478">
        <ele>332</ele>
        <time>2023-05-01T12:28:49+02:00</time>
      </trkpt>
      <trkpt lat="47.17766" lon="5.50461">
        <ele>331</ele>
        <time>2023-05-01T12:29:01+02:00</time>
      </trkpt>
      <trkpt lat="47.17773" lon="5.50443">
        <ele>331</ele>
        <time>2023-05-01T12:29:12+02:00</time>
      </trkpt>
      <trkpt lat="47.17781" lon="5.50424">
        <ele>330</ele>
        <time>2023-05-01T12:29:23+02:00</time>
      </trkpt>
      <trkpt lat="47.17788" lon="5.50402">
        <ele>329</ele>
        <time>2023-05-01T12:29:36+02:00</time>
      </trkpt>
      <trkpt lat="47.17794" lon="5.50383">
        <ele>328</ele>
        <time>2023-05-01T12:29:47+02:00</time>
      </trkpt>
      <trkpt lat="47.17801" lon="5.50364">
        <ele>327</ele>
        <time>2023-05-01T12:29:58+02:00</time>
      </trkpt>
      <trkpt lat="47.17807" lon="5.50344">
        <ele>326</ele>
        <time>2023-05-01T12:30:19+02:00</time>
      </trkpt>
      <trkpt lat="47.17812" lon="5.50321">
        <ele>325</ele>
        <time>2023-05-01T12:30:30+02:00</time>
      </trkpt>
      <trkpt lat="47.17824" lon="5.50303">
        <ele>324</ele>
        <time>2023-05-01T12:30:43+02:00</time>
      </trkpt>
      <trkpt lat="47.17832" lon="5.50285">
        <ele>322</ele>
        <time>2023-05-01T12:30:54+02:00</time>
      </trkpt>
      <trkpt lat="47.17841" lon="5.50267">
        <ele>320</ele>
        <time>2023-05-01T12:31:06+02:00</time>
      </trkpt>
      <trkpt lat="47.17848" lon="5.50249">
        <ele>319</ele>
        <time>2023-05-01T12:31:16+02:00</time>
      </trkpt>
      <trkpt lat="47.17856" lon="5.50229">
        <ele>317</ele>
        <time>2023-05-01T12:31:27+02:00</time>
      </trkpt>
      <trkpt lat="47.17863" lon="5.50207">
        <ele>314</ele>
        <time>2023-05-01T12:31:40+02:00</time>
      </trkpt>
      <trkpt lat="47.17867" lon="5.50185">
        <ele>311</ele>
        <time>2023-05-01T12:31:51+02:00</time>
      </trkpt>
      <trkpt lat="47.17867" lon="5.50162">
        <ele>308</ele>
        <time>2023-05-01T12:32:02+02:00</time>
      </trkpt>
      <trkpt lat="47.1787" lon="5.50139">
        <ele>306</ele>
        <time>2023-05-01T12:32:13+02:00</time>
      </trkpt>
      <trkpt lat="47.17876" lon="5.50122">
        <ele>305</ele>
        <time>2023-05-01T12:32:24+02:00</time>
      </trkpt>
      <trkpt lat="47.17887" lon="5.50106">
        <ele>303</ele>
        <time>2023-05-01T12:32:35+02:00</time>
      </trkpt>
      <trkpt lat="47.17894" lon="5.50088">
        <ele>301</ele>
        <time>2023-05-01T12:32:46+02:00</time>
      </trkpt>
      <trkpt lat="47.17903" lon="5.5007">
        <ele>299</ele>
        <time>2023-05-01T12:32:57+02:00</time>
      </trkpt>
      <trkpt lat="47.17909" lon="5.50049">
        <ele>297</ele>
        <time>2023-05-01T12:33:08+02:00</time>
      </trkpt>
      <trkpt lat="47.17915" lon="5.50028">
        <ele>296</ele>
        <time>2023-05-01T12:33:19+02:00</time>
      </trkpt>
      <trkpt lat="47.17924" lon="5.50011">
        <ele>295</ele>
        <time>2023-05-01T12:33:30+02:00</time>
      </trkpt>
      <trkpt lat="47.17936" lon="5.49994">
        <ele>293</ele>
        <time>2023-05-01T12:33:44+02:00</time>
      </trkpt>
      <trkpt lat="47.17949" lon="5.49979">
        <ele>292</ele>
        <time>2023-05-01T12:33:57+02:00</time>
      </trkpt>
      <trkpt lat="47.17961" lon="5.49969">
        <ele>291</ele>
        <time>2023-05-01T12:34:08+02:00</time>
      </trkpt>
      <trkpt lat="47.17972" lon="5.49952">
        <ele>290</ele>
        <time>2023-05-01T12:34:18+02:00</time>
      </trkpt>
      <trkpt lat="47.17982" lon="5.49935">
        <ele>288</ele>
        <time>2023-05-01T12:34:28+02:00</time>
      </trkpt>
      <trkpt lat="47.1799" lon="5.49916">
        <ele>285</ele>
        <time>2023-05-01T12:34:39+02:00</time>
      </trkpt>
      <trkpt lat="47.17997" lon="5.49898">
        <ele>283</ele>
        <time>2023-05-01T12:34:50+02:00</time>
      </trkpt>
      <trkpt lat="47.18005" lon="5.49877">
        <ele>280</ele>
        <time>2023-05-01T12:35:04+02:00</time>
      </trkpt>
      <trkpt lat="47.18014" lon="5.49858">
        <ele>278</ele>
        <time>2023-05-01T12:35:14+02:00</time>
      </trkpt>
      <trkpt lat="47.18022" lon="5.49839">
        <ele>276</ele>
        <time>2023-05-01T12:35:25+02:00</time>
      </trkpt>
      <trkpt lat="47.18028" lon="5.49819">
        <ele>275</ele>
        <time>2023-05-01T12:35:36+02:00</time>
      </trkpt>
      <trkpt lat="47.18029" lon="5.49794">
        <ele>273</ele>
        <time>2023-05-01T12:35:47+02:00</time>
      </trkpt>
      <trkpt lat="47.18028" lon="5.49772">
        <ele>272</ele>
        <time>2023-05-01T12:35:57+02:00</time>
      </trkpt>
      <trkpt lat="47.18031" lon="5.49752">
        <ele>271</ele>
        <time>2023-05-01T12:36:08+02:00</time>
      </trkpt>
      <trkpt lat="47.18033" lon="5.49731">
        <ele>269</ele>
        <time>2023-05-01T12:36:19+02:00</time>
      </trkpt>
      <trkpt lat="47.18042" lon="5.49714">
        <ele>269</ele>
        <time>2023-05-01T12:36:30+02:00</time>
      </trkpt>
      <trkpt lat="47.18053" lon="5.49697">
        <ele>268</ele>
        <time>2023-05-01T12:36:43+02:00</time>
      </trkpt>
      <trkpt lat="47.18067" lon="5.49698">
        <ele>268</ele>
        <time>2023-05-01T12:36:56+02:00</time>
      </trkpt>
      <trkpt lat="47.18078" lon="5.49711">
        <ele>268</ele>
        <time>2023-05-01T12:37:06+02:00</time>
      </trkpt>
      <trkpt lat="47.1809" lon="5.49723">
        <ele>269</ele>
        <time>2023-05-01T12:37:17+02:00</time>
      </trkpt>
      <trkpt lat="47.18102" lon="5.49734">
        <ele>269</ele>
        <time>2023-05-01T12:37:28+02:00</time>
      </trkpt>
      <trkpt lat="47.18116" lon="5.49747">
        <ele>270</ele>
        <time>2023-05-01T12:37:41+02:00</time>
      </trkpt>
      <trkpt lat="47.18128" lon="5.49758">
        <ele>270</ele>
        <time>2023-05-01T12:37:51+02:00</time>
      </trkpt>
      <trkpt lat="47.1814" lon="5.49771">
        <ele>270</ele>
        <time>2023-05-01T12:38:02+02:00</time>
      </trkpt>
      <trkpt lat="47.18153" lon="5.49783">
        <ele>271</ele>
        <time>2023-05-01T12:38:14+02:00</time>
      </trkpt>
      <trkpt lat="47.18165" lon="5.49794">
        <ele>271</ele>
        <time>2023-05-01T12:38:24+02:00</time>
      </trkpt>
      <trkpt lat="47.18177" lon="5.49807">
        <ele>271</ele>
        <time>2023-05-01T12:38:35+02:00</time>
      </trkpt>
      <trkpt lat="47.18189" lon="5.49822">
        <ele>272</ele>
        <time>2023-05-01T12:38:47+02:00</time>
      </trkpt>
      <trkpt lat="47.18201" lon="5.49836">
        <ele>272</ele>
        <time>2023-05-01T12:38:58+02:00</time>
      </trkpt>
      <trkpt lat="47.18215" lon="5.49848">
        <ele>272</ele>
        <time>2023-05-01T12:39:10+02:00</time>
      </trkpt>
      <trkpt lat="47.18226" lon="5.49861">
        <ele>273</ele>
        <time>2023-05-01T12:39:21+02:00</time>
      </trkpt>
      <trkpt lat="47.18238" lon="5.49876">
        <ele>273</ele>
        <time>2023-05-01T12:39:32+02:00</time>
      </trkpt>
      <trkpt lat="47.1825" lon="5.49859">
        <ele>273</ele>
        <time>2023-05-01T12:39:43+02:00</time>
      </trkpt>
      <trkpt lat="47.1826" lon="5.49846">
        <ele>273</ele>
        <time>2023-05-01T12:39:54+02:00</time>
      </trkpt>
      <trkpt lat="47.18272" lon="5.4983">
        <ele>273</ele>
        <time>2023-05-01T12:40:07+02:00</time>
      </trkpt>
      <trkpt lat="47.18284" lon="5.49815">
        <ele>273</ele>
        <time>2023-05-01T12:40:18+02:00</time>
      </trkpt>
      <trkpt lat="47.18295" lon="5.49802">
        <ele>273</ele>
        <time>2023-05-01T12:40:29+02:00</time>
      </trkpt>
      <trkpt lat="47.1831" lon="5.49787">
        <ele>274</ele>
        <time>2023-05-01T12:40:43+02:00</time>
      </trkpt>
      <trkpt lat="47.18321" lon="5.49775">
        <ele>274</ele>
        <time>2023-05-01T12:40:53+02:00</time>
      </trkpt>
      <trkpt lat="47.18332" lon="5.49763">
        <ele>275</ele>
        <time>2023-05-01T12:41:04+02:00</time>
      </trkpt>
      <trkpt lat="47.18344" lon="5.4975">
        <ele>276</ele>
        <time>2023-05-01T12:41:15+02:00</time>
      </trkpt>
      <trkpt lat="47.18354" lon="5.49735">
        <ele>276</ele>
        <time>2023-05-01T12:41:26+02:00</time>
      </trkpt>
      <trkpt lat="47.18364" lon="5.49718">
        <ele>277</ele>
        <time>2023-05-01T12:41:38+02:00</time>
      </trkpt>
      <trkpt lat="47.18361" lon="5.49697">
        <ele>277</ele>
        <time>2023-05-01T12:41:49+02:00</time>
      </trkpt>
      <trkpt lat="47.18353" lon="5.4968">
        <ele>278</ele>
        <time>2023-05-01T12:41:59+02:00</time>
      </trkpt>
      <trkpt lat="47.18342" lon="5.49661">
        <ele>278</ele>
        <time>2023-05-01T12:42:10+02:00</time>
      </trkpt>
      <trkpt lat="47.1833" lon="5.49642">
        <ele>279</ele>
        <time>2023-05-01T12:42:23+02:00</time>
      </trkpt>
      <trkpt lat="47.18319" lon="5.49626">
        <ele>279</ele>
        <time>2023-05-01T12:42:34+02:00</time>
      </trkpt>
      <trkpt lat="47.18311" lon="5.49608">
        <ele>279</ele>
        <time>2023-05-01T12:42:45+02:00</time>
      </trkpt>
      <trkpt lat="47.18301" lon="5.49592">
        <ele>278</ele>
        <time>2023-05-01T12:42:56+02:00</time>
      </trkpt>
      <trkpt lat="47.18294" lon="5.49573">
        <ele>278</ele>
        <time>2023-05-01T12:43:07+02:00</time>
      </trkpt>
      <trkpt lat="47.18285" lon="5.49555">
        <ele>277</ele>
        <time>2023-05-01T12:43:18+02:00</time>
      </trkpt>
      <trkpt lat="47.18277" lon="5.49537">
        <ele>276</ele>
        <time>2023-05-01T12:43:29+02:00</time>
      </trkpt>
      <trkpt lat="47.18269" lon="5.49519">
        <ele>276</ele>
        <time>2023-05-01T12:43:40+02:00</time>
      </trkpt>
      <trkpt lat="47.18262" lon="5.49501">
        <ele>275</ele>
        <time>2023-05-01T12:43:50+02:00</time>
      </trkpt>
      <trkpt lat="47.18252" lon="5.49485">
        <ele>275</ele>
        <time>2023-05-01T12:44:01+02:00</time>
      </trkpt>
      <trkpt lat="47.18246" lon="5.49466">
        <ele>274</ele>
        <time>2023-05-01T12:44:12+02:00</time>
      </trkpt>
      <trkpt lat="47.18236" lon="5.49447">
        <ele>273</ele>
        <time>2023-05-01T12:44:23+02:00</time>
      </trkpt>
      <trkpt lat="47.18226" lon="5.49433">
        <ele>273</ele>
        <time>2023-05-01T12:44:34+02:00</time>
      </trkpt>
      <trkpt lat="47.18216" lon="5.49414">
        <ele>272</ele>
        <time>2023-05-01T12:44:45+02:00</time>
      </trkpt>
      <trkpt lat="47.18206" lon="5.49399">
        <ele>271</ele>
        <time>2023-05-01T12:44:56+02:00</time>
      </trkpt>
      <trkpt lat="47.18198" lon="5.49384">
        <ele>271</ele>
        <time>2023-05-01T12:45:06+02:00</time>
      </trkpt>
      <trkpt lat="47.18189" lon="5.49366">
        <ele>270</ele>
        <time>2023-05-01T12:45:18+02:00</time>
      </trkpt>
      <trkpt lat="47.18178" lon="5.49346">
        <ele>269</ele>
        <time>2023-05-01T12:45:28+02:00</time>
      </trkpt>
      <trkpt lat="47.1817" lon="5.49326">
        <ele>269</ele>
        <time>2023-05-01T12:45:41+02:00</time>
      </trkpt>
      <trkpt lat="47.1817" lon="5.49304">
        <ele>269</ele>
        <time>2023-05-01T12:45:53+02:00</time>
      </trkpt>
      <trkpt lat="47.18171" lon="5.49285">
        <ele>268</ele>
        <time>2023-05-01T12:46:03+02:00</time>
      </trkpt>
      <trkpt lat="47.18172" lon="5.49263">
        <ele>269</ele>
        <time>2023-05-01T12:46:14+02:00</time>
      </trkpt>
      <trkpt lat="47.18171" lon="5.49243">
        <ele>268</ele>
        <time>2023-05-01T12:46:26+02:00</time>
      </trkpt>
      <trkpt lat="47.18171" lon="5.49221">
        <ele>269</ele>
        <time>2023-05-01T12:46:36+02:00</time>
      </trkpt>
      <trkpt lat="47.18174" lon="5.49202">
        <ele>269</ele>
        <time>2023-05-01T12:46:47+02:00</time>
      </trkpt>
      <trkpt lat="47.18174" lon="5.4918">
        <ele>270</ele>
        <time>2023-05-01T12:46:57+02:00</time>
      </trkpt>
      <trkpt lat="47.18176" lon="5.49159">
        <ele>270</ele>
        <time>2023-05-01T12:47:08+02:00</time>
      </trkpt>
      <trkpt lat="47.18174" lon="5.49138">
        <ele>271</ele>
        <time>2023-05-01T12:47:18+02:00</time>
      </trkpt>
      <trkpt lat="47.18175" lon="5.49115">
        <ele>273</ele>
        <time>2023-05-01T12:47:30+02:00</time>
      </trkpt>
      <trkpt lat="47.18174" lon="5.49089">
        <ele>273</ele>
        <time>2023-05-01T12:47:44+02:00</time>
      </trkpt>
      <trkpt lat="47.18172" lon="5.49068">
        <ele>274</ele>
        <time>2023-05-01T12:47:55+02:00</time>
      </trkpt>
      <trkpt lat="47.18168" lon="5.49048">
        <ele>275</ele>
        <time>2023-05-01T12:48:06+02:00</time>
      </trkpt>
      <trkpt lat="47.18164" lon="5.49028">
        <ele>276</ele>
        <time>2023-05-01T12:48:17+02:00</time>
      </trkpt>
      <trkpt lat="47.18161" lon="5.49008">
        <ele>278</ele>
        <time>2023-05-01T12:48:28+02:00</time>
      </trkpt>
      <trkpt lat="47.18161" lon="5.48988">
        <ele>279</ele>
        <time>2023-05-01T12:48:39+02:00</time>
      </trkpt>
      <trkpt lat="47.18166" lon="5.48968">
        <ele>280</ele>
        <time>2023-05-01T12:48:49+02:00</time>
      </trkpt>
      <trkpt lat="47.18175" lon="5.48947">
        <ele>280</ele>
        <time>2023-05-01T12:49:02+02:00</time>
      </trkpt>
      <trkpt lat="47.18184" lon="5.4893">
        <ele>281</ele>
        <time>2023-05-01T12:49:13+02:00</time>
      </trkpt>
      <trkpt lat="47.18194" lon="5.4891">
        <ele>282</ele>
        <time>2023-05-01T12:49:26+02:00</time>
      </trkpt>
      <trkpt lat="47.18204" lon="5.48892">
        <ele>282</ele>
        <time>2023-05-01T12:49:37+02:00</time>
      </trkpt>
      <trkpt lat="47.18212" lon="5.48876">
        <ele>283</ele>
        <time>2023-05-01T12:49:47+02:00</time>
      </trkpt>
      <trkpt lat="47.1822" lon="5.48857">
        <ele>283</ele>
        <time>2023-05-01T12:49:59+02:00</time>
      </trkpt>
      <trkpt lat="47.18229" lon="5.4884">
        <ele>283</ele>
        <time>2023-05-01T12:50:09+02:00</time>
      </trkpt>
      <trkpt lat="47.18234" lon="5.4882">
        <ele>284</ele>
        <time>2023-05-01T12:50:20+02:00</time>
      </trkpt>
      <trkpt lat="47.18242" lon="5.48799">
        <ele>284</ele>
        <time>2023-05-01T12:50:33+02:00</time>
      </trkpt>
      <trkpt lat="47.18245" lon="5.48778">
        <ele>283</ele>
        <time>2023-05-01T12:50:43+02:00</time>
      </trkpt>
      <trkpt lat="47.18234" lon="5.48757">
        <ele>283</ele>
        <time>2023-05-01T12:50:55+02:00</time>
      </trkpt>
      <trkpt lat="47.18222" lon="5.48742">
        <ele>284</ele>
        <time>2023-05-01T12:51:06+02:00</time>
      </trkpt>
      <trkpt lat="47.18211" lon="5.48727">
        <ele>284</ele>
        <time>2023-05-01T12:51:17+02:00</time>
      </trkpt>
      <trkpt lat="47.18202" lon="5.48709">
        <ele>283</ele>
        <time>2023-05-01T12:51:28+02:00</time>
      </trkpt>
      <trkpt lat="47.18191" lon="5.48695">
        <ele>283</ele>
        <time>2023-05-01T12:51:40+02:00</time>
      </trkpt>
      <trkpt lat="47.18179" lon="5.4868">
        <ele>284</ele>
        <time>2023-05-01T12:51:51+02:00</time>
      </trkpt>
      <trkpt lat="47.18169" lon="5.48665">
        <ele>284</ele>
        <time>2023-05-01T12:52:02+02:00</time>
      </trkpt>
      <trkpt lat="47.18158" lon="5.4865">
        <ele>283</ele>
        <time>2023-05-01T12:52:12+02:00</time>
      </trkpt>
      <trkpt lat="47.18146" lon="5.48633">
        <ele>283</ele>
        <time>2023-05-01T12:52:25+02:00</time>
      </trkpt>
      <trkpt lat="47.18135" lon="5.4862">
        <ele>282</ele>
        <time>2023-05-01T12:52:37+02:00</time>
      </trkpt>
      <trkpt lat="47.18124" lon="5.48604">
        <ele>282</ele>
        <time>2023-05-01T12:52:48+02:00</time>
      </trkpt>
      <trkpt lat="47.18112" lon="5.4859">
        <ele>282</ele>
        <time>2023-05-01T12:52:59+02:00</time>
      </trkpt>
      <trkpt lat="47.18098" lon="5.48573">
        <ele>281</ele>
        <time>2023-05-01T12:53:12+02:00</time>
      </trkpt>
      <trkpt lat="47.18087" lon="5.48559">
        <ele>281</ele>
        <time>2023-05-01T12:53:24+02:00</time>
      </trkpt>
      <trkpt lat="47.18074" lon="5.48544">
        <ele>281</ele>
        <time>2023-05-01T12:53:36+02:00</time>
      </trkpt>
      <trkpt lat="47.18063" lon="5.48532">
        <ele>281</ele>
        <time>2023-05-01T12:53:47+02:00</time>
      </trkpt>
      <trkpt lat="47.1805" lon="5.48519">
        <ele>281</ele>
        <time>2023-05-01T12:53:58+02:00</time>
      </trkpt>
      <trkpt lat="47.18039" lon="5.48505">
        <ele>280</ele>
        <time>2023-05-01T12:54:08+02:00</time>
      </trkpt>
      <trkpt lat="47.18026" lon="5.48491">
        <ele>280</ele>
        <time>2023-05-01T12:54:19+02:00</time>
      </trkpt>
      <trkpt lat="47.18015" lon="5.48479">
        <ele>279</ele>
        <time>2023-05-01T12:54:30+02:00</time>
      </trkpt>
      <trkpt lat="47.18003" lon="5.48465">
        <ele>279</ele>
        <time>2023-05-01T12:54:41+02:00</time>
      </trkpt>
      <trkpt lat="47.1799" lon="5.48451">
        <ele>278</ele>
        <time>2023-05-01T12:54:52+02:00</time>
      </trkpt>
      <trkpt lat="47.17978" lon="5.48438">
        <ele>278</ele>
        <time>2023-05-01T12:55:03+02:00</time>
      </trkpt>
      <trkpt lat="47.17966" lon="5.48425">
        <ele>277</ele>
        <time>2023-05-01T12:55:14+02:00</time>
      </trkpt>
      <trkpt lat="47.17956" lon="5.48412">
        <ele>277</ele>
        <time>2023-05-01T12:55:24+02:00</time>
      </trkpt>
      <trkpt lat="47.17945" lon="5.48397">
        <ele>276</ele>
        <time>2023-05-01T12:55:35+02:00</time>
      </trkpt>
      <trkpt lat="47.17937" lon="5.48379">
        <ele>276</ele>
        <time>2023-05-01T12:55:46+02:00</time>
      </trkpt>
      <trkpt lat="47.17928" lon="5.48358">
        <ele>275</ele>
        <time>2023-05-01T12:55:58+02:00</time>
      </trkpt>
      <trkpt lat="47.17921" lon="5.48336">
        <ele>275</ele>
        <time>2023-05-01T12:56:11+02:00</time>
      </trkpt>
      <trkpt lat="47.17912" lon="5.48314">
        <ele>274</ele>
        <time>2023-05-01T12:56:24+02:00</time>
      </trkpt>
      <trkpt lat="47.17905" lon="5.48295">
        <ele>274</ele>
        <time>2023-05-01T12:56:35+02:00</time>
      </trkpt>
      <trkpt lat="47.17895" lon="5.48277">
        <ele>273</ele>
        <time>2023-05-01T12:56:46+02:00</time>
      </trkpt>
      <trkpt lat="47.17886" lon="5.4826">
        <ele>271</ele>
        <time>2023-05-01T12:56:57+02:00</time>
      </trkpt>
      <trkpt lat="47.17877" lon="5.48245">
        <ele>271</ele>
        <time>2023-05-01T12:57:08+02:00</time>
      </trkpt>
      <trkpt lat="47.17867" lon="5.48228">
        <ele>270</ele>
        <time>2023-05-01T12:57:19+02:00</time>
      </trkpt>
      <trkpt lat="47.17859" lon="5.4821">
        <ele>269</ele>
        <time>2023-05-01T12:57:30+02:00</time>
      </trkpt>
      <trkpt lat="47.1785" lon="5.48195">
        <ele>269</ele>
        <time>2023-05-01T12:57:41+02:00</time>
      </trkpt>
      <trkpt lat="47.17844" lon="5.48175">
        <ele>269</ele>
        <time>2023-05-01T12:57:52+02:00</time>
      </trkpt>
      <trkpt lat="47.1784" lon="5.48151">
        <ele>267</ele>
        <time>2023-05-01T12:58:05+02:00</time>
      </trkpt>
      <trkpt lat="47.17833" lon="5.4813">
        <ele>266</ele>
        <time>2023-05-01T12:58:18+02:00</time>
      </trkpt>
      <trkpt lat="47.17825" lon="5.48109">
        <ele>266</ele>
        <time>2023-05-01T12:58:31+02:00</time>
      </trkpt>
      <trkpt lat="47.17817" lon="5.48089">
        <ele>265</ele>
        <time>2023-05-01T12:58:42+02:00</time>
      </trkpt>
      <trkpt lat="47.17808" lon="5.48074">
        <ele>264</ele>
        <time>2023-05-01T12:58:53+02:00</time>
      </trkpt>
      <trkpt lat="47.178" lon="5.48053">
        <ele>263</ele>
        <time>2023-05-01T12:59:06+02:00</time>
      </trkpt>
      <trkpt lat="47.17791" lon="5.48036">
        <ele>262</ele>
        <time>2023-05-01T12:59:17+02:00</time>
      </trkpt>
      <trkpt lat="47.17784" lon="5.48018">
        <ele>261</ele>
        <time>2023-05-01T12:59:27+02:00</time>
      </trkpt>
      <trkpt lat="47.17777" lon="5.47999">
        <ele>260</ele>
        <time>2023-05-01T12:59:39+02:00</time>
      </trkpt>
      <trkpt lat="47.17771" lon="5.47981">
        <ele>259</ele>
        <time>2023-05-01T12:59:50+02:00</time>
      </trkpt>
      <trkpt lat="47.17761" lon="5.47962">
        <ele>258</ele>
        <time>2023-05-01T13:00:03+02:00</time>
      </trkpt>
      <trkpt lat="47.17751" lon="5.47946">
        <ele>257</ele>
        <time>2023-05-01T13:00:14+02:00</time>
      </trkpt>
      <trkpt lat="47.17737" lon="5.47935">
        <ele>256</ele>
        <time>2023-05-01T13:00:24+02:00</time>
      </trkpt>
      <trkpt lat="47.17724" lon="5.47926">
        <ele>255</ele>
        <time>2023-05-01T13:00:35+02:00</time>
      </trkpt>
      <trkpt lat="47.17711" lon="5.47917">
        <ele>255</ele>
        <time>2023-05-01T13:00:46+02:00</time>
      </trkpt>
      <trkpt lat="47.17697" lon="5.47907">
        <ele>255</ele>
        <time>2023-05-01T13:00:57+02:00</time>
      </trkpt>
      <trkpt lat="47.17684" lon="5.47898">
        <ele>255</ele>
        <time>2023-05-01T13:01:10+02:00</time>
      </trkpt>
      <trkpt lat="47.17669" lon="5.47895">
        <ele>255</ele>
        <time>2023-05-01T13:01:23+02:00</time>
      </trkpt>
      <trkpt lat="47.17653" lon="5.47887">
        <ele>256</ele>
        <time>2023-05-01T13:01:37+02:00</time>
      </trkpt>
      <trkpt lat="47.17638" lon="5.47879">
        <ele>256</ele>
        <time>2023-05-01T13:01:51+02:00</time>
      </trkpt>
      <trkpt lat="47.17623" lon="5.47878">
        <ele>256</ele>
        <time>2023-05-01T13:02:04+02:00</time>
      </trkpt>
      <trkpt lat="47.17608" lon="5.47884">
        <ele>256</ele>
        <time>2023-05-01T13:02:19+02:00</time>
      </trkpt>
      <trkpt lat="47.17595" lon="5.47884">
        <ele>255</ele>
        <time>2023-05-01T13:02:30+02:00</time>
      </trkpt>
      <trkpt lat="47.17581" lon="5.47886">
        <ele>256</ele>
        <time>2023-05-01T13:02:41+02:00</time>
      </trkpt>
      <trkpt lat="47.17567" lon="5.47888">
        <ele>256</ele>
        <time>2023-05-01T13:02:52+02:00</time>
      </trkpt>
      <trkpt lat="47.17552" lon="5.47891">
        <ele>256</ele>
        <time>2023-05-01T13:03:05+02:00</time>
      </trkpt>
      <trkpt lat="47.17538" lon="5.47894">
        <ele>257</ele>
        <time>2023-05-01T13:03:16+02:00</time>
      </trkpt>
      <trkpt lat="47.17523" lon="5.47896">
        <ele>258</ele>
        <time>2023-05-01T13:03:29+02:00</time>
      </trkpt>
      <trkpt lat="47.17509" lon="5.47895">
        <ele>259</ele>
        <time>2023-05-01T13:03:40+02:00</time>
      </trkpt>
      <trkpt lat="47.17492" lon="5.47888">
        <ele>260</ele>
        <time>2023-05-01T13:03:54+02:00</time>
      </trkpt>
      <trkpt lat="47.17478" lon="5.47875">
        <ele>261</ele>
        <time>2023-05-01T13:04:08+02:00</time>
      </trkpt>
      <trkpt lat="47.17476" lon="5.4785">
        <ele>262</ele>
        <time>2023-05-01T13:04:38+02:00</time>
      </trkpt>
      <trkpt lat="47.17478" lon="5.4783">
        <ele>263</ele>
        <time>2023-05-01T13:04:50+02:00</time>
      </trkpt>
      <trkpt lat="47.17482" lon="5.4781">
        <ele>264</ele>
        <time>2023-05-01T13:05:01+02:00</time>
      </trkpt>
      <trkpt lat="47.17492" lon="5.47788">
        <ele>266</ele>
        <time>2023-05-01T13:05:16+02:00</time>
      </trkpt>
      <trkpt lat="47.17494" lon="5.47766">
        <ele>267</ele>
        <time>2023-05-01T13:05:28+02:00</time>
      </trkpt>
      <trkpt lat="47.17497" lon="5.47744">
        <ele>268</ele>
        <time>2023-05-01T13:05:41+02:00</time>
      </trkpt>
      <trkpt lat="47.1748" lon="5.47747">
        <ele>269</ele>
        <time>2023-05-01T13:06:05+02:00</time>
      </trkpt>
      <trkpt lat="47.17468" lon="5.47762">
        <ele>270</ele>
        <time>2023-05-01T13:06:20+02:00</time>
      </trkpt>
      <trkpt lat="47.17452" lon="5.47771">
        <ele>271</ele>
        <time>2023-05-01T13:06:33+02:00</time>
      </trkpt>
      <trkpt lat="47.1744" lon="5.47785">
        <ele>270</ele>
        <time>2023-05-01T13:06:44+02:00</time>
      </trkpt>
      <trkpt lat="47.17429" lon="5.47798">
        <ele>269</ele>
        <time>2023-05-01T13:06:55+02:00</time>
      </trkpt>
      <trkpt lat="47.17419" lon="5.47812">
        <ele>269</ele>
        <time>2023-05-01T13:07:07+02:00</time>
      </trkpt>
      <trkpt lat="47.17406" lon="5.47826">
        <ele>269</ele>
        <time>2023-05-01T13:07:22+02:00</time>
      </trkpt>
      <trkpt lat="47.17397" lon="5.47841">
        <ele>269</ele>
        <time>2023-05-01T13:07:34+02:00</time>
      </trkpt>
      <trkpt lat="47.17383" lon="5.47855">
        <ele>268</ele>
        <time>2023-05-01T13:07:48+02:00</time>
      </trkpt>
      <trkpt lat="47.17372" lon="5.47869">
        <ele>268</ele>
        <time>2023-05-01T13:08:00+02:00</time>
      </trkpt>
      <trkpt lat="47.1736" lon="5.47883">
        <ele>268</ele>
        <time>2023-05-01T13:08:13+02:00</time>
      </trkpt>
      <trkpt lat="47.17347" lon="5.47895">
        <ele>268</ele>
        <time>2023-05-01T13:08:25+02:00</time>
      </trkpt>
      <trkpt lat="47.17335" lon="5.47903">
        <ele>269</ele>
        <time>2023-05-01T13:08:36+02:00</time>
      </trkpt>
      <trkpt lat="47.17321" lon="5.47911">
        <ele>268</ele>
        <time>2023-05-01T13:08:48+02:00</time>
      </trkpt>
      <trkpt lat="47.17304" lon="5.47915">
        <ele>269</ele>
        <time>2023-05-01T13:09:01+02:00</time>
      </trkpt>
      <trkpt lat="47.17291" lon="5.47917">
        <ele>269</ele>
        <time>2023-05-01T13:09:12+02:00</time>
      </trkpt>
      <trkpt lat="47.17276" lon="5.47917">
        <ele>269</ele>
        <time>2023-05-01T13:09:23+02:00</time>
      </trkpt>
      <trkpt lat="47.17262" lon="5.47916">
        <ele>270</ele>
        <time>2023-05-01T13:09:35+02:00</time>
      </trkpt>
      <trkpt lat="47.17244" lon="5.4792">
        <ele>271</ele>
        <time>2023-05-01T13:09:49+02:00</time>
      </trkpt>
      <trkpt lat="47.1723" lon="5.47923">
        <ele>272</ele>
        <time>2023-05-01T13:10:03+02:00</time>
      </trkpt>
      <trkpt lat="47.17215" lon="5.47933">
        <ele>272</ele>
        <time>2023-05-01T13:10:16+02:00</time>
      </trkpt>
      <trkpt lat="47.17202" lon="5.47942">
        <ele>272</ele>
        <time>2023-05-01T13:10:28+02:00</time>
      </trkpt>
      <trkpt lat="47.17186" lon="5.4795">
        <ele>271</ele>
        <time>2023-05-01T13:10:41+02:00</time>
      </trkpt>
      <trkpt lat="47.17171" lon="5.47954">
        <ele>271</ele>
        <time>2023-05-01T13:10:54+02:00</time>
      </trkpt>
      <trkpt lat="47.17154" lon="5.47956">
        <ele>270</ele>
        <time>2023-05-01T13:11:07+02:00</time>
      </trkpt>
      <trkpt lat="47.1714" lon="5.47959">
        <ele>270</ele>
        <time>2023-05-01T13:11:18+02:00</time>
      </trkpt>
      <trkpt lat="47.17126" lon="5.47967">
        <ele>270</ele>
        <time>2023-05-01T13:11:29+02:00</time>
      </trkpt>
      <trkpt lat="47.17115" lon="5.47978">
        <ele>270</ele>
        <time>2023-05-01T13:11:40+02:00</time>
      </trkpt>
      <trkpt lat="47.17103" lon="5.47988">
        <ele>270</ele>
        <time>2023-05-01T13:11:50+02:00</time>
      </trkpt>
      <trkpt lat="47.17092" lon="5.48002">
        <ele>270</ele>
        <time>2023-05-01T13:12:03+02:00</time>
      </trkpt>
      <trkpt lat="47.17077" lon="5.48017">
        <ele>270</ele>
        <time>2023-05-01T13:12:17+02:00</time>
      </trkpt>
      <trkpt lat="47.17065" lon="5.48025">
        <ele>271</ele>
        <time>2023-05-01T13:12:28+02:00</time>
      </trkpt>
      <trkpt lat="47.17048" lon="5.48033">
        <ele>271</ele>
        <time>2023-05-01T13:12:42+02:00</time>
      </trkpt>
      <trkpt lat="47.17032" lon="5.48039">
        <ele>273</ele>
        <time>2023-05-01T13:12:56+02:00</time>
      </trkpt>
      <trkpt lat="47.17018" lon="5.48043">
        <ele>273</ele>
        <time>2023-05-01T13:13:06+02:00</time>
      </trkpt>
      <trkpt lat="47.17003" lon="5.48049">
        <ele>274</ele>
        <time>2023-05-01T13:13:20+02:00</time>
      </trkpt>
      <trkpt lat="47.16989" lon="5.48055">
        <ele>274</ele>
        <time>2023-05-01T13:13:31+02:00</time>
      </trkpt>
      <trkpt lat="47.16976" lon="5.48063">
        <ele>275</ele>
        <time>2023-05-01T13:13:44+02:00</time>
      </trkpt>
      <trkpt lat="47.16961" lon="5.48068">
        <ele>277</ele>
        <time>2023-05-01T13:14:18+02:00</time>
      </trkpt>
      <trkpt lat="47.16946" lon="5.48072">
        <ele>277</ele>
        <time>2023-05-01T13:14:30+02:00</time>
      </trkpt>
      <trkpt lat="47.16931" lon="5.48075">
        <ele>278</ele>
        <time>2023-05-01T13:14:42+02:00</time>
      </trkpt>
      <trkpt lat="47.16918" lon="5.48082">
        <ele>280</ele>
        <time>2023-05-01T13:42:28+02:00</time>
      </trkpt>
      <trkpt lat="47.16905" lon="5.4809">
        <ele>280</ele>
        <time>2023-05-01T13:42:40+02:00</time>
      </trkpt>
      <trkpt lat="47.16891" lon="5.48098">
        <ele>281</ele>
        <time>2023-05-01T13:42:55+02:00</time>
      </trkpt>
      <trkpt lat="47.16876" lon="5.48109">
        <ele>282</ele>
        <time>2023-05-01T13:43:10+02:00</time>
      </trkpt>
      <trkpt lat="47.16861" lon="5.48116">
        <ele>283</ele>
        <time>2023-05-01T13:43:25+02:00</time>
      </trkpt>
      <trkpt lat="47.16849" lon="5.48129">
        <ele>284</ele>
        <time>2023-05-01T13:43:40+02:00</time>
      </trkpt>
      <trkpt lat="47.16837" lon="5.48147">
        <ele>285</ele>
        <time>2023-05-01T13:43:55+02:00</time>
      </trkpt>
      <trkpt lat="47.16823" lon="5.48161">
        <ele>286</ele>
        <time>2023-05-01T13:44:09+02:00</time>
      </trkpt>
      <trkpt lat="47.16814" lon="5.48177">
        <ele>287</ele>
        <time>2023-05-01T13:44:23+02:00</time>
      </trkpt>
      <trkpt lat="47.16803" lon="5.48192">
        <ele>288</ele>
        <time>2023-05-01T13:44:36+02:00</time>
      </trkpt>
      <trkpt lat="47.16792" lon="5.48207">
        <ele>289</ele>
        <time>2023-05-01T13:44:50+02:00</time>
      </trkpt>
      <trkpt lat="47.16781" lon="5.48225">
        <ele>290</ele>
        <time>2023-05-01T13:45:04+02:00</time>
      </trkpt>
      <trkpt lat="47.16769" lon="5.48239">
        <ele>291</ele>
        <time>2023-05-01T13:45:18+02:00</time>
      </trkpt>
      <trkpt lat="47.16755" lon="5.48251">
        <ele>292</ele>
        <time>2023-05-01T13:45:33+02:00</time>
      </trkpt>
      <trkpt lat="47.16743" lon="5.48265">
        <ele>294</ele>
        <time>2023-05-01T13:45:47+02:00</time>
      </trkpt>
      <trkpt lat="47.16732" lon="5.48276">
        <ele>295</ele>
        <time>2023-05-01T13:45:59+02:00</time>
      </trkpt>
      <trkpt lat="47.16722" lon="5.48291">
        <ele>296</ele>
        <time>2023-05-01T13:46:13+02:00</time>
      </trkpt>
      <trkpt lat="47.16709" lon="5.48305">
        <ele>297</ele>
        <time>2023-05-01T13:46:27+02:00</time>
      </trkpt>
      <trkpt lat="47.16697" lon="5.48321">
        <ele>299</ele>
        <time>2023-05-01T13:46:41+02:00</time>
      </trkpt>
      <trkpt lat="47.16684" lon="5.48333">
        <ele>299</ele>
        <time>2023-05-01T13:46:54+02:00</time>
      </trkpt>
      <trkpt lat="47.16669" lon="5.48343">
        <ele>300</ele>
        <time>2023-05-01T13:47:08+02:00</time>
      </trkpt>
      <trkpt lat="47.16657" lon="5.48355">
        <ele>300</ele>
        <time>2023-05-01T13:47:21+02:00</time>
      </trkpt>
      <trkpt lat="47.16646" lon="5.48366">
        <ele>300</ele>
        <time>2023-05-01T13:47:31+02:00</time>
      </trkpt>
      <trkpt lat="47.16634" lon="5.48378">
        <ele>301</ele>
        <time>2023-05-01T13:47:44+02:00</time>
      </trkpt>
      <trkpt lat="47.16621" lon="5.48387">
        <ele>301</ele>
        <time>2023-05-01T13:47:56+02:00</time>
      </trkpt>
      <trkpt lat="47.16608" lon="5.48395">
        <ele>302</ele>
        <time>2023-05-01T13:48:06+02:00</time>
      </trkpt>
      <trkpt lat="47.16595" lon="5.48409">
        <ele>303</ele>
        <time>2023-05-01T13:48:17+02:00</time>
      </trkpt>
      <trkpt lat="47.16582" lon="5.48419">
        <ele>303</ele>
        <time>2023-05-01T13:48:29+02:00</time>
      </trkpt>
      <trkpt lat="47.16569" lon="5.48426">
        <ele>302</ele>
        <time>2023-05-01T13:48:43+02:00</time>
      </trkpt>
      <trkpt lat="47.16557" lon="5.48441">
        <ele>302</ele>
        <time>2023-05-01T13:48:56+02:00</time>
      </trkpt>
      <trkpt lat="47.16547" lon="5.48454">
        <ele>302</ele>
        <time>2023-05-01T13:49:07+02:00</time>
      </trkpt>
      <trkpt lat="47.16538" lon="5.48473">
        <ele>301</ele>
        <time>2023-05-01T13:49:18+02:00</time>
      </trkpt>
      <trkpt lat="47.1653" lon="5.48494">
        <ele>300</ele>
        <time>2023-05-01T13:49:32+02:00</time>
      </trkpt>
      <trkpt lat="47.16521" lon="5.48513">
        <ele>301</ele>
        <time>2023-05-01T13:49:46+02:00</time>
      </trkpt>
      <trkpt lat="47.1651" lon="5.48531">
        <ele>301</ele>
        <time>2023-05-01T13:50:00+02:00</time>
      </trkpt>
      <trkpt lat="47.16498" lon="5.48547">
        <ele>302</ele>
        <time>2023-05-01T13:50:13+02:00</time>
      </trkpt>
      <trkpt lat="47.16485" lon="5.48558">
        <ele>303</ele>
        <time>2023-05-01T13:50:26+02:00</time>
      </trkpt>
      <trkpt lat="47.1647" lon="5.48569">
        <ele>303</ele>
        <time>2023-05-01T13:50:40+02:00</time>
      </trkpt>
      <trkpt lat="47.16458" lon="5.48583">
        <ele>304</ele>
        <time>2023-05-01T13:50:53+02:00</time>
      </trkpt>
      <trkpt lat="47.16443" lon="5.48595">
        <ele>305</ele>
        <time>2023-05-01T13:51:08+02:00</time>
      </trkpt>
      <trkpt lat="47.1643" lon="5.48607">
        <ele>306</ele>
        <time>2023-05-01T13:51:21+02:00</time>
      </trkpt>
      <trkpt lat="47.16419" lon="5.48625">
        <ele>307</ele>
        <time>2023-05-01T13:51:37+02:00</time>
      </trkpt>
      <trkpt lat="47.16406" lon="5.48634">
        <ele>307</ele>
        <time>2023-05-01T13:51:50+02:00</time>
      </trkpt>
      <trkpt lat="47.1639" lon="5.48641">
        <ele>307</ele>
        <time>2023-05-01T13:52:05+02:00</time>
      </trkpt>
      <trkpt lat="47.16375" lon="5.48652">
        <ele>308</ele>
        <time>2023-05-01T13:52:18+02:00</time>
      </trkpt>
      <trkpt lat="47.16363" lon="5.48662">
        <ele>308</ele>
        <time>2023-05-01T13:52:30+02:00</time>
      </trkpt>
      <trkpt lat="47.16349" lon="5.48672">
        <ele>308</ele>
        <time>2023-05-01T13:52:44+02:00</time>
      </trkpt>
      <trkpt lat="47.16334" lon="5.48683">
        <ele>308</ele>
        <time>2023-05-01T13:52:58+02:00</time>
      </trkpt>
      <trkpt lat="47.16319" lon="5.48694">
        <ele>309</ele>
        <time>2023-05-01T13:53:11+02:00</time>
      </trkpt>
      <trkpt lat="47.16306" lon="5.48706">
        <ele>309</ele>
        <time>2023-05-01T13:53:26+02:00</time>
      </trkpt>
      <trkpt lat="47.16294" lon="5.48716">
        <ele>310</ele>
        <time>2023-05-01T13:53:38+02:00</time>
      </trkpt>
      <trkpt lat="47.16282" lon="5.4873">
        <ele>310</ele>
        <time>2023-05-01T13:53:52+02:00</time>
      </trkpt>
      <trkpt lat="47.16269" lon="5.48741">
        <ele>311</ele>
        <time>2023-05-01T13:54:05+02:00</time>
      </trkpt>
      <trkpt lat="47.16254" lon="5.48746">
        <ele>312</ele>
        <time>2023-05-01T13:54:19+02:00</time>
      </trkpt>
      <trkpt lat="47.1624" lon="5.48748">
        <ele>313</ele>
        <time>2023-05-01T13:54:31+02:00</time>
      </trkpt>
      <trkpt lat="47.16225" lon="5.48756">
        <ele>315</ele>
        <time>2023-05-01T13:54:48+02:00</time>
      </trkpt>
      <trkpt lat="47.16211" lon="5.48763">
        <ele>317</ele>
        <time>2023-05-01T13:55:03+02:00</time>
      </trkpt>
      <trkpt lat="47.16197" lon="5.48764">
        <ele>318</ele>
        <time>2023-05-01T13:55:17+02:00</time>
      </trkpt>
      <trkpt lat="47.16182" lon="5.48772">
        <ele>321</ele>
        <time>2023-05-01T13:55:32+02:00</time>
      </trkpt>
      <trkpt lat="47.16171" lon="5.48784">
        <ele>323</ele>
        <time>2023-05-01T13:55:45+02:00</time>
      </trkpt>
      <trkpt lat="47.16159" lon="5.48795">
        <ele>325</ele>
        <time>2023-05-01T13:56:00+02:00</time>
      </trkpt>
      <trkpt lat="47.16149" lon="5.4881">
        <ele>327</ele>
        <time>2023-05-01T13:56:15+02:00</time>
      </trkpt>
      <trkpt lat="47.16141" lon="5.48829">
        <ele>329</ele>
        <time>2023-05-01T13:56:29+02:00</time>
      </trkpt>
      <trkpt lat="47.16128" lon="5.48835">
        <ele>329</ele>
        <time>2023-05-01T13:56:44+02:00</time>
      </trkpt>
      <trkpt lat="47.16112" lon="5.48832">
        <ele>329</ele>
        <time>2023-05-01T13:56:58+02:00</time>
      </trkpt>
      <trkpt lat="47.16098" lon="5.48829">
        <ele>329</ele>
        <time>2023-05-01T13:57:12+02:00</time>
      </trkpt>
      <trkpt lat="47.16083" lon="5.48828">
        <ele>329</ele>
        <time>2023-05-01T13:57:29+02:00</time>
      </trkpt>
      <trkpt lat="47.16067" lon="5.48823">
        <ele>329</ele>
        <time>2023-05-01T13:57:45+02:00</time>
      </trkpt>
      <trkpt lat="47.16052" lon="5.48817">
        <ele>329</ele>
        <time>2023-05-01T13:57:58+02:00</time>
      </trkpt>
      <trkpt lat="47.16038" lon="5.48811">
        <ele>329</ele>
        <time>2023-05-01T13:58:11+02:00</time>
      </trkpt>
      <trkpt lat="47.16022" lon="5.48806">
        <ele>329</ele>
        <time>2023-05-01T13:58:25+02:00</time>
      </trkpt>
      <trkpt lat="47.16009" lon="5.48801">
        <ele>328</ele>
        <time>2023-05-01T13:58:36+02:00</time>
      </trkpt>
      <trkpt lat="47.15994" lon="5.48795">
        <ele>328</ele>
        <time>2023-05-01T13:58:50+02:00</time>
      </trkpt>
      <trkpt lat="47.1598" lon="5.48792">
        <ele>327</ele>
        <time>2023-05-01T13:59:01+02:00</time>
      </trkpt>
      <trkpt lat="47.15964" lon="5.48789">
        <ele>327</ele>
        <time>2023-05-01T13:59:15+02:00</time>
      </trkpt>
      <trkpt lat="47.1595" lon="5.48781">
        <ele>326</ele>
        <time>2023-05-01T13:59:30+02:00</time>
      </trkpt>
      <trkpt lat="47.15936" lon="5.4877">
        <ele>326</ele>
        <time>2023-05-01T13:59:41+02:00</time>
      </trkpt>
      <trkpt lat="47.15923" lon="5.48759">
        <ele>326</ele>
        <time>2023-05-01T13:59:54+02:00</time>
      </trkpt>
      <trkpt lat="47.15917" lon="5.48782">
        <ele>324</ele>
        <time>2023-05-01T14:00:08+02:00</time>
      </trkpt>
      <trkpt lat="47.15913" lon="5.48802">
        <ele>322</ele>
        <time>2023-05-01T14:00:18+02:00</time>
      </trkpt>
      <trkpt lat="47.1591" lon="5.48821">
        <ele>322</ele>
        <time>2023-05-01T14:00:29+02:00</time>
      </trkpt>
      <trkpt lat="47.15904" lon="5.48843">
        <ele>321</ele>
        <time>2023-05-01T14:00:43+02:00</time>
      </trkpt>
      <trkpt lat="47.159" lon="5.48867">
        <ele>320</ele>
        <time>2023-05-01T14:00:57+02:00</time>
      </trkpt>
      <trkpt lat="47.15891" lon="5.48888">
        <ele>318</ele>
        <time>2023-05-01T14:01:11+02:00</time>
      </trkpt>
      <trkpt lat="47.15885" lon="5.48907">
        <ele>316</ele>
        <time>2023-05-01T14:01:23+02:00</time>
      </trkpt>
      <trkpt lat="47.15874" lon="5.48922">
        <ele>316</ele>
        <time>2023-05-01T14:01:46+02:00</time>
      </trkpt>
      <trkpt lat="47.15868" lon="5.48943">
        <ele>316</ele>
        <time>2023-05-01T14:01:59+02:00</time>
      </trkpt>
      <trkpt lat="47.15863" lon="5.48962">
        <ele>317</ele>
        <time>2023-05-01T14:02:10+02:00</time>
      </trkpt>
      <trkpt lat="47.15856" lon="5.48981">
        <ele>319</ele>
        <time>2023-05-01T14:02:24+02:00</time>
      </trkpt>
      <trkpt lat="47.1585" lon="5.49004">
        <ele>321</ele>
        <time>2023-05-01T14:02:39+02:00</time>
      </trkpt>
      <trkpt lat="47.15847" lon="5.49023">
        <ele>322</ele>
        <time>2023-05-01T14:02:51+02:00</time>
      </trkpt>
      <trkpt lat="47.15848" lon="5.49047">
        <ele>323</ele>
        <time>2023-05-01T14:03:03+02:00</time>
      </trkpt>
      <trkpt lat="47.15851" lon="5.49068">
        <ele>325</ele>
        <time>2023-05-01T14:03:17+02:00</time>
      </trkpt>
      <trkpt lat="47.15852" lon="5.49088">
        <ele>325</ele>
        <time>2023-05-01T14:03:28+02:00</time>
      </trkpt>
      <trkpt lat="47.15855" lon="5.49112">
        <ele>327</ele>
        <time>2023-05-01T14:03:41+02:00</time>
      </trkpt>
      <trkpt lat="47.15861" lon="5.49135">
        <ele>328</ele>
        <time>2023-05-01T14:03:55+02:00</time>
      </trkpt>
      <trkpt lat="47.15868" lon="5.49158">
        <ele>329</ele>
        <time>2023-05-01T14:04:08+02:00</time>
      </trkpt>
      <trkpt lat="47.15876" lon="5.4918">
        <ele>329</ele>
        <time>2023-05-01T14:04:22+02:00</time>
      </trkpt>
      <trkpt lat="47.15882" lon="5.49202">
        <ele>330</ele>
        <time>2023-05-01T14:04:35+02:00</time>
      </trkpt>
      <trkpt lat="47.15889" lon="5.49225">
        <ele>331</ele>
        <time>2023-05-01T14:04:48+02:00</time>
      </trkpt>
      <trkpt lat="47.15896" lon="5.49246">
        <ele>331</ele>
        <time>2023-05-01T14:05:01+02:00</time>
      </trkpt>
      <trkpt lat="47.15903" lon="5.49265">
        <ele>332</ele>
        <time>2023-05-01T14:05:12+02:00</time>
      </trkpt>
      <trkpt lat="47.1591" lon="5.49287">
        <ele>332</ele>
        <time>2023-05-01T14:05:25+02:00</time>
      </trkpt>
      <trkpt lat="47.15915" lon="5.4931">
        <ele>332</ele>
        <time>2023-05-01T14:05:38+02:00</time>
      </trkpt>
      <trkpt lat="47.15919" lon="5.49333">
        <ele>331</ele>
        <time>2023-05-01T14:05:52+02:00</time>
      </trkpt>
      <trkpt lat="47.15922" lon="5.49353">
        <ele>332</ele>
        <time>2023-05-01T14:06:04+02:00</time>
      </trkpt>
      <trkpt lat="47.15925" lon="5.49372">
        <ele>332</ele>
        <time>2023-05-01T14:06:15+02:00</time>
      </trkpt>
      <trkpt lat="47.15929" lon="5.49393">
        <ele>333</ele>
        <time>2023-05-01T14:06:28+02:00</time>
      </trkpt>
      <trkpt lat="47.15931" lon="5.49417">
        <ele>334</ele>
        <time>2023-05-01T14:06:40+02:00</time>
      </trkpt>
      <trkpt lat="47.15937" lon="5.49439">
        <ele>335</ele>
        <time>2023-05-01T14:06:54+02:00</time>
      </trkpt>
      <trkpt lat="47.15942" lon="5.49459">
        <ele>336</ele>
        <time>2023-05-01T14:07:10+02:00</time>
      </trkpt>
      <trkpt lat="47.15943" lon="5.49436">
        <ele>336</ele>
        <time>2023-05-01T14:07:35+02:00</time>
      </trkpt>
      <trkpt lat="47.15941" lon="5.49459">
        <ele>337</ele>
        <time>2023-05-01T14:08:54+02:00</time>
      </trkpt>
      <trkpt lat="47.15943" lon="5.49481">
        <ele>338</ele>
        <time>2023-05-01T14:09:06+02:00</time>
      </trkpt>
      <trkpt lat="47.15944" lon="5.49505">
        <ele>338</ele>
        <time>2023-05-01T14:09:19+02:00</time>
      </trkpt>
      <trkpt lat="47.15943" lon="5.49527">
        <ele>339</ele>
        <time>2023-05-01T14:09:32+02:00</time>
      </trkpt>
      <trkpt lat="47.15944" lon="5.49551">
        <ele>340</ele>
        <time>2023-05-01T14:09:47+02:00</time>
      </trkpt>
      <trkpt lat="47.15942" lon="5.49576">
        <ele>341</ele>
        <time>2023-05-01T14:10:00+02:00</time>
      </trkpt>
      <trkpt lat="47.15938" lon="5.49596">
        <ele>342</ele>
        <time>2023-05-01T14:10:14+02:00</time>
      </trkpt>
      <trkpt lat="47.15936" lon="5.49617">
        <ele>343</ele>
        <time>2023-05-01T14:10:25+02:00</time>
      </trkpt>
      <trkpt lat="47.15935" lon="5.49637">
        <ele>344</ele>
        <time>2023-05-01T14:10:37+02:00</time>
      </trkpt>
      <trkpt lat="47.15933" lon="5.4966">
        <ele>345</ele>
        <time>2023-05-01T14:10:50+02:00</time>
      </trkpt>
      <trkpt lat="47.15932" lon="5.49684">
        <ele>347</ele>
        <time>2023-05-01T14:11:02+02:00</time>
      </trkpt>
      <trkpt lat="47.15931" lon="5.49707">
        <ele>347</ele>
        <time>2023-05-01T14:11:15+02:00</time>
      </trkpt>
      <trkpt lat="47.15929" lon="5.4973">
        <ele>347</ele>
        <time>2023-05-01T14:11:27+02:00</time>
      </trkpt>
      <trkpt lat="47.15926" lon="5.49753">
        <ele>347</ele>
        <time>2023-05-01T14:11:39+02:00</time>
      </trkpt>
      <trkpt lat="47.15924" lon="5.49776">
        <ele>347</ele>
        <time>2023-05-01T14:11:53+02:00</time>
      </trkpt>
      <trkpt lat="47.15924" lon="5.49801">
        <ele>347</ele>
        <time>2023-05-01T14:12:10+02:00</time>
      </trkpt>
      <trkpt lat="47.15921" lon="5.49821">
        <ele>347</ele>
        <time>2023-05-01T14:12:20+02:00</time>
      </trkpt>
      <trkpt lat="47.15923" lon="5.49841">
        <ele>349</ele>
        <time>2023-05-01T14:12:32+02:00</time>
      </trkpt>
      <trkpt lat="47.1592" lon="5.49862">
        <ele>351</ele>
        <time>2023-05-01T14:12:46+02:00</time>
      </trkpt>
      <trkpt lat="47.15906" lon="5.49854">
        <ele>351</ele>
        <time>2023-05-01T14:12:58+02:00</time>
      </trkpt>
      <trkpt lat="47.15889" lon="5.49852">
        <ele>354</ele>
        <time>2023-05-01T14:13:14+02:00</time>
      </trkpt>
      <trkpt lat="47.15873" lon="5.49851">
        <ele>355</ele>
        <time>2023-05-01T14:13:27+02:00</time>
      </trkpt>
      <trkpt lat="47.15857" lon="5.49849">
        <ele>356</ele>
        <time>2023-05-01T14:13:38+02:00</time>
      </trkpt>
      <trkpt lat="47.15842" lon="5.4985">
        <ele>358</ele>
        <time>2023-05-01T14:13:51+02:00</time>
      </trkpt>
      <trkpt lat="47.15828" lon="5.49848">
        <ele>359</ele>
        <time>2023-05-01T14:14:04+02:00</time>
      </trkpt>
      <trkpt lat="47.15814" lon="5.49844">
        <ele>360</ele>
        <time>2023-05-01T14:14:15+02:00</time>
      </trkpt>
      <trkpt lat="47.15798" lon="5.49839">
        <ele>360</ele>
        <time>2023-05-01T14:14:30+02:00</time>
      </trkpt>
      <trkpt lat="47.15785" lon="5.49831">
        <ele>361</ele>
        <time>2023-05-01T14:14:41+02:00</time>
      </trkpt>
      <trkpt lat="47.15768" lon="5.49823">
        <ele>361</ele>
        <time>2023-05-01T14:14:54+02:00</time>
      </trkpt>
      <trkpt lat="47.15754" lon="5.49816">
        <ele>361</ele>
        <time>2023-05-01T14:15:06+02:00</time>
      </trkpt>
      <trkpt lat="47.15741" lon="5.49808">
        <ele>361</ele>
        <time>2023-05-01T14:15:17+02:00</time>
      </trkpt>
      <trkpt lat="47.15728" lon="5.49801">
        <ele>362</ele>
        <time>2023-05-01T14:15:28+02:00</time>
      </trkpt>
      <trkpt lat="47.15713" lon="5.49791">
        <ele>362</ele>
        <time>2023-05-01T14:15:42+02:00</time>
      </trkpt>
      <trkpt lat="47.157" lon="5.49783">
        <ele>362</ele>
        <time>2023-05-01T14:15:53+02:00</time>
      </trkpt>
      <trkpt lat="47.15685" lon="5.49773">
        <ele>363</ele>
        <time>2023-05-01T14:16:06+02:00</time>
      </trkpt>
      <trkpt lat="47.15671" lon="5.49764">
        <ele>364</ele>
        <time>2023-05-01T14:16:21+02:00</time>
      </trkpt>
      <trkpt lat="47.15658" lon="5.49753">
        <ele>365</ele>
        <time>2023-05-01T14:16:34+02:00</time>
      </trkpt>
      <trkpt lat="47.15644" lon="5.49746">
        <ele>365</ele>
        <time>2023-05-01T14:16:47+02:00</time>
      </trkpt>
      <trkpt lat="47.15631" lon="5.49737">
        <ele>366</ele>
        <time>2023-05-01T14:16:58+02:00</time>
      </trkpt>
      <trkpt lat="47.15618" lon="5.49726">
        <ele>366</ele>
        <time>2023-05-01T14:17:11+02:00</time>
      </trkpt>
      <trkpt lat="47.15603" lon="5.49715">
        <ele>366</ele>
        <time>2023-05-01T14:17:25+02:00</time>
      </trkpt>
      <trkpt lat="47.1559" lon="5.49706">
        <ele>366</ele>
        <time>2023-05-01T14:17:54+02:00</time>
      </trkpt>
      <trkpt lat="47.15577" lon="5.49693">
        <ele>365</ele>
        <time>2023-05-01T14:18:07+02:00</time>
      </trkpt>
      <trkpt lat="47.15562" lon="5.49681">
        <ele>365</ele>
        <time>2023-05-01T14:18:21+02:00</time>
      </trkpt>
      <trkpt lat="47.15549" lon="5.49672">
        <ele>365</ele>
        <time>2023-05-01T14:18:32+02:00</time>
      </trkpt>
      <trkpt lat="47.15536" lon="5.49663">
        <ele>365</ele>
        <time>2023-05-01T14:19:04+02:00</time>
      </trkpt>
      <trkpt lat="47.15522" lon="5.49654">
        <ele>365</ele>
        <time>2023-05-01T14:19:17+02:00</time>
      </trkpt>
      <trkpt lat="47.15508" lon="5.49644">
        <ele>365</ele>
        <time>2023-05-01T14:19:31+02:00</time>
      </trkpt>
      <trkpt lat="47.15494" lon="5.49634">
        <ele>364</ele>
        <time>2023-05-01T14:19:43+02:00</time>
      </trkpt>
      <trkpt lat="47.15481" lon="5.49625">
        <ele>364</ele>
        <time>2023-05-01T14:19:54+02:00</time>
      </trkpt>
      <trkpt lat="47.15467" lon="5.49615">
        <ele>364</ele>
        <time>2023-05-01T14:20:06+02:00</time>
      </trkpt>
      <trkpt lat="47.15454" lon="5.49606">
        <ele>364</ele>
        <time>2023-05-01T14:20:17+02:00</time>
      </trkpt>
      <trkpt lat="47.15441" lon="5.49596">
        <ele>364</ele>
        <time>2023-05-01T14:20:28+02:00</time>
      </trkpt>
      <trkpt lat="47.15426" lon="5.49584">
        <ele>364</ele>
        <time>2023-05-01T14:20:41+02:00</time>
      </trkpt>
      <trkpt lat="47.15414" lon="5.49572">
        <ele>363</ele>
        <time>2023-05-01T14:20:53+02:00</time>
      </trkpt>
      <trkpt lat="47.154" lon="5.49565">
        <ele>363</ele>
        <time>2023-05-01T14:21:03+02:00</time>
      </trkpt>
      <trkpt lat="47.15388" lon="5.49556">
        <ele>362</ele>
        <time>2023-05-01T14:21:14+02:00</time>
      </trkpt>
      <trkpt lat="47.15375" lon="5.49548">
        <ele>362</ele>
        <time>2023-05-01T14:21:24+02:00</time>
      </trkpt>
      <trkpt lat="47.15362" lon="5.49536">
        <ele>361</ele>
        <time>2023-05-01T14:21:36+02:00</time>
      </trkpt>
      <trkpt lat="47.15349" lon="5.49528">
        <ele>360</ele>
        <time>2023-05-01T14:21:45+02:00</time>
      </trkpt>
      <trkpt lat="47.15336" lon="5.49516">
        <ele>359</ele>
        <time>2023-05-01T14:21:58+02:00</time>
      </trkpt>
      <trkpt lat="47.15323" lon="5.49504">
        <ele>358</ele>
        <time>2023-05-01T14:22:09+02:00</time>
      </trkpt>
      <trkpt lat="47.1531" lon="5.49494">
        <ele>357</ele>
        <time>2023-05-01T14:22:19+02:00</time>
      </trkpt>
      <trkpt lat="47.15298" lon="5.49485">
        <ele>356</ele>
        <time>2023-05-01T14:22:30+02:00</time>
      </trkpt>
      <trkpt lat="47.15283" lon="5.49474">
        <ele>355</ele>
        <time>2023-05-01T14:22:43+02:00</time>
      </trkpt>
      <trkpt lat="47.1527" lon="5.49464">
        <ele>353</ele>
        <time>2023-05-01T14:22:54+02:00</time>
      </trkpt>
      <trkpt lat="47.15257" lon="5.49455">
        <ele>352</ele>
        <time>2023-05-01T14:23:05+02:00</time>
      </trkpt>
      <trkpt lat="47.15244" lon="5.49446">
        <ele>351</ele>
        <time>2023-05-01T14:23:16+02:00</time>
      </trkpt>
      <trkpt lat="47.15231" lon="5.49435">
        <ele>350</ele>
        <time>2023-05-01T14:23:28+02:00</time>
      </trkpt>
      <trkpt lat="47.15218" lon="5.49424">
        <ele>348</ele>
        <time>2023-05-01T14:23:39+02:00</time>
      </trkpt>
      <trkpt lat="47.15205" lon="5.49414">
        <ele>347</ele>
        <time>2023-05-01T14:23:50+02:00</time>
      </trkpt>
      <trkpt lat="47.15194" lon="5.49402">
        <ele>346</ele>
        <time>2023-05-01T14:24:00+02:00</time>
      </trkpt>
      <trkpt lat="47.15181" lon="5.49393">
        <ele>345</ele>
        <time>2023-05-01T14:24:11+02:00</time>
      </trkpt>
      <trkpt lat="47.15167" lon="5.49379">
        <ele>343</ele>
        <time>2023-05-01T14:24:24+02:00</time>
      </trkpt>
      <trkpt lat="47.15153" lon="5.49368">
        <ele>342</ele>
        <time>2023-05-01T14:24:35+02:00</time>
      </trkpt>
      <trkpt lat="47.1514" lon="5.49356">
        <ele>340</ele>
        <time>2023-05-01T14:24:47+02:00</time>
      </trkpt>
      <trkpt lat="47.15128" lon="5.49347">
        <ele>339</ele>
        <time>2023-05-01T14:24:58+02:00</time>
      </trkpt>
      <trkpt lat="47.15114" lon="5.49335">
        <ele>338</ele>
        <time>2023-05-01T14:25:09+02:00</time>
      </trkpt>
      <trkpt lat="47.151" lon="5.49324">
        <ele>336</ele>
        <time>2023-05-01T14:25:22+02:00</time>
      </trkpt>
      <trkpt lat="47.15085" lon="5.49316">
        <ele>335</ele>
        <time>2023-05-01T14:25:33+02:00</time>
      </trkpt>
      <trkpt lat="47.15071" lon="5.49306">
        <ele>334</ele>
        <time>2023-05-01T14:25:44+02:00</time>
      </trkpt>
      <trkpt lat="47.15058" lon="5.49296">
        <ele>333</ele>
        <time>2023-05-01T14:25:55+02:00</time>
      </trkpt>
      <trkpt lat="47.15044" lon="5.49287">
        <ele>332</ele>
        <time>2023-05-01T14:26:09+02:00</time>
      </trkpt>
      <trkpt lat="47.15031" lon="5.49278">
        <ele>331</ele>
        <time>2023-05-01T14:26:20+02:00</time>
      </trkpt>
      <trkpt lat="47.15018" lon="5.49268">
        <ele>331</ele>
        <time>2023-05-01T14:26:31+02:00</time>
      </trkpt>
      <trkpt lat="47.15003" lon="5.49257">
        <ele>329</ele>
        <time>2023-05-01T14:26:44+02:00</time>
      </trkpt>
      <trkpt lat="47.14989" lon="5.49248">
        <ele>328</ele>
        <time>2023-05-01T14:26:57+02:00</time>
      </trkpt>
      <trkpt lat="47.14976" lon="5.49238">
        <ele>328</ele>
        <time>2023-05-01T14:27:08+02:00</time>
      </trkpt>
      <trkpt lat="47.14961" lon="5.49228">
        <ele>327</ele>
        <time>2023-05-01T14:27:21+02:00</time>
      </trkpt>
      <trkpt lat="47.14948" lon="5.49216">
        <ele>327</ele>
        <time>2023-05-01T14:27:35+02:00</time>
      </trkpt>
      <trkpt lat="47.14935" lon="5.49207">
        <ele>326</ele>
        <time>2023-05-01T14:27:46+02:00</time>
      </trkpt>
      <trkpt lat="47.14922" lon="5.49197">
        <ele>325</ele>
        <time>2023-05-01T14:27:58+02:00</time>
      </trkpt>
      <trkpt lat="47.14909" lon="5.49188">
        <ele>325</ele>
        <time>2023-05-01T14:28:10+02:00</time>
      </trkpt>
      <trkpt lat="47.14897" lon="5.49177">
        <ele>324</ele>
        <time>2023-05-01T14:28:22+02:00</time>
      </trkpt>
      <trkpt lat="47.14881" lon="5.49173">
        <ele>323</ele>
        <time>2023-05-01T14:28:35+02:00</time>
      </trkpt>
      <trkpt lat="47.1487" lon="5.49156">
        <ele>322</ele>
        <time>2023-05-01T14:29:20+02:00</time>
      </trkpt>
      <trkpt lat="47.14857" lon="5.49147">
        <ele>322</ele>
        <time>2023-05-01T14:29:30+02:00</time>
      </trkpt>
      <trkpt lat="47.14845" lon="5.49134">
        <ele>322</ele>
        <time>2023-05-01T14:29:44+02:00</time>
      </trkpt>
      <trkpt lat="47.1484" lon="5.49109">
        <ele>323</ele>
        <time>2023-05-01T14:29:58+02:00</time>
      </trkpt>
      <trkpt lat="47.14837" lon="5.49089">
        <ele>322</ele>
        <time>2023-05-01T14:30:09+02:00</time>
      </trkpt>
      <trkpt lat="47.14833" lon="5.49068">
        <ele>322</ele>
        <time>2023-05-01T14:30:21+02:00</time>
      </trkpt>
      <trkpt lat="47.14822" lon="5.49055">
        <ele>322</ele>
        <time>2023-05-01T14:30:32+02:00</time>
      </trkpt>
      <trkpt lat="47.14807" lon="5.49058">
        <ele>322</ele>
        <time>2023-05-01T14:30:43+02:00</time>
      </trkpt>
      <trkpt lat="47.14794" lon="5.49069">
        <ele>322</ele>
        <time>2023-05-01T14:30:56+02:00</time>
      </trkpt>
      <trkpt lat="47.1478" lon="5.49078">
        <ele>321</ele>
        <time>2023-05-01T14:31:12+02:00</time>
      </trkpt>
      <trkpt lat="47.14769" lon="5.4909">
        <ele>321</ele>
        <time>2023-05-01T14:31:24+02:00</time>
      </trkpt>
      <trkpt lat="47.14757" lon="5.49106">
        <ele>318</ele>
        <time>2023-05-01T14:31:37+02:00</time>
      </trkpt>
      <trkpt lat="47.14743" lon="5.49118">
        <ele>316</ele>
        <time>2023-05-01T14:31:51+02:00</time>
      </trkpt>
      <trkpt lat="47.14731" lon="5.49134">
        <ele>315</ele>
        <time>2023-05-01T14:32:04+02:00</time>
      </trkpt>
      <trkpt lat="47.1472" lon="5.49147">
        <ele>314</ele>
        <time>2023-05-01T14:32:15+02:00</time>
      </trkpt>
      <trkpt lat="47.14705" lon="5.4916">
        <ele>311</ele>
        <time>2023-05-01T14:32:29+02:00</time>
      </trkpt>
      <trkpt lat="47.14692" lon="5.49173">
        <ele>311</ele>
        <time>2023-05-01T14:32:41+02:00</time>
      </trkpt>
      <trkpt lat="47.14678" lon="5.49181">
        <ele>310</ele>
        <time>2023-05-01T14:32:52+02:00</time>
      </trkpt>
      <trkpt lat="47.14663" lon="5.4919">
        <ele>309</ele>
        <time>2023-05-01T14:33:05+02:00</time>
      </trkpt>
      <trkpt lat="47.14649" lon="5.49198">
        <ele>308</ele>
        <time>2023-05-01T14:33:16+02:00</time>
      </trkpt>
      <trkpt lat="47.14637" lon="5.49207">
        <ele>308</ele>
        <time>2023-05-01T14:33:27+02:00</time>
      </trkpt>
      <trkpt lat="47.14624" lon="5.49216">
        <ele>306</ele>
        <time>2023-05-01T14:33:38+02:00</time>
      </trkpt>
      <trkpt lat="47.14611" lon="5.49224">
        <ele>306</ele>
        <time>2023-05-01T14:33:49+02:00</time>
      </trkpt>
      <trkpt lat="47.14596" lon="5.49232">
        <ele>306</ele>
        <time>2023-05-01T14:34:00+02:00</time>
      </trkpt>
      <trkpt lat="47.14583" lon="5.49244">
        <ele>306</ele>
        <time>2023-05-01T14:34:13+02:00</time>
      </trkpt>
      <trkpt lat="47.14571" lon="5.49257">
        <ele>306</ele>
        <time>2023-05-01T14:34:25+02:00</time>
      </trkpt>
      <trkpt lat="47.1456" lon="5.49268">
        <ele>306</ele>
        <time>2023-05-01T14:34:36+02:00</time>
      </trkpt>
      <trkpt lat="47.14546" lon="5.49272">
        <ele>306</ele>
        <time>2023-05-01T14:34:47+02:00</time>
      </trkpt>
      <trkpt lat="47.14534" lon="5.49282">
        <ele>306</ele>
        <time>2023-05-01T14:34:57+02:00</time>
      </trkpt>
      <trkpt lat="47.14524" lon="5.49298">
        <ele>306</ele>
        <time>2023-05-01T14:35:09+02:00</time>
      </trkpt>
      <trkpt lat="47.14515" lon="5.49318">
        <ele>306</ele>
        <time>2023-05-01T14:35:22+02:00</time>
      </trkpt>
      <trkpt lat="47.14504" lon="5.49332">
        <ele>306</ele>
        <time>2023-05-01T14:35:33+02:00</time>
      </trkpt>
      <trkpt lat="47.14493" lon="5.49347">
        <ele>303</ele>
        <time>2023-05-01T14:35:45+02:00</time>
      </trkpt>
      <trkpt lat="47.1448" lon="5.49365">
        <ele>303</ele>
        <time>2023-05-01T14:35:59+02:00</time>
      </trkpt>
      <trkpt lat="47.14471" lon="5.49382">
        <ele>301</ele>
        <time>2023-05-01T14:36:11+02:00</time>
      </trkpt>
      <trkpt lat="47.14461" lon="5.49395">
        <ele>300</ele>
        <time>2023-05-01T14:36:22+02:00</time>
      </trkpt>
      <trkpt lat="47.14451" lon="5.4941">
        <ele>299</ele>
        <time>2023-05-01T14:36:33+02:00</time>
      </trkpt>
      <trkpt lat="47.14438" lon="5.49428">
        <ele>297</ele>
        <time>2023-05-01T14:36:46+02:00</time>
      </trkpt>
      <trkpt lat="47.14428" lon="5.49444">
        <ele>296</ele>
        <time>2023-05-01T14:36:58+02:00</time>
      </trkpt>
      <trkpt lat="47.14416" lon="5.49456">
        <ele>294</ele>
        <time>2023-05-01T14:37:11+02:00</time>
      </trkpt>
      <trkpt lat="47.14403" lon="5.49469">
        <ele>291</ele>
        <time>2023-05-01T14:37:24+02:00</time>
      </trkpt>
      <trkpt lat="47.14391" lon="5.49485">
        <ele>291</ele>
        <time>2023-05-01T14:37:35+02:00</time>
      </trkpt>
      <trkpt lat="47.14379" lon="5.49499">
        <ele>291</ele>
        <time>2023-05-01T14:37:45+02:00</time>
      </trkpt>
      <trkpt lat="47.14366" lon="5.49511">
        <ele>289</ele>
        <time>2023-05-01T14:37:59+02:00</time>
      </trkpt>
      <trkpt lat="47.14352" lon="5.49514">
        <ele>288</ele>
        <time>2023-05-01T14:38:12+02:00</time>
      </trkpt>
      <trkpt lat="47.14338" lon="5.49523">
        <ele>286</ele>
        <time>2023-05-01T14:38:25+02:00</time>
      </trkpt>
      <trkpt lat="47.14325" lon="5.49531">
        <ele>284</ele>
        <time>2023-05-01T14:38:38+02:00</time>
      </trkpt>
      <trkpt lat="47.14312" lon="5.49539">
        <ele>284</ele>
        <time>2023-05-01T14:38:49+02:00</time>
      </trkpt>
      <trkpt lat="47.14297" lon="5.49549">
        <ele>281</ele>
        <time>2023-05-01T14:39:02+02:00</time>
      </trkpt>
      <trkpt lat="47.14282" lon="5.49558">
        <ele>281</ele>
        <time>2023-05-01T14:39:16+02:00</time>
      </trkpt>
      <trkpt lat="47.1427" lon="5.49572">
        <ele>281</ele>
        <time>2023-05-01T14:39:29+02:00</time>
      </trkpt>
      <trkpt lat="47.14257" lon="5.49581">
        <ele>281</ele>
        <time>2023-05-01T14:39:42+02:00</time>
      </trkpt>
      <trkpt lat="47.14241" lon="5.49591">
        <ele>281</ele>
        <time>2023-05-01T14:39:55+02:00</time>
      </trkpt>
      <trkpt lat="47.14227" lon="5.49603">
        <ele>282</ele>
        <time>2023-05-01T14:40:08+02:00</time>
      </trkpt>
      <trkpt lat="47.14211" lon="5.49613">
        <ele>281</ele>
        <time>2023-05-01T14:40:21+02:00</time>
      </trkpt>
      <trkpt lat="47.14199" lon="5.49627">
        <ele>282</ele>
        <time>2023-05-01T14:40:32+02:00</time>
      </trkpt>
      <trkpt lat="47.14189" lon="5.4964">
        <ele>282</ele>
        <time>2023-05-01T14:40:43+02:00</time>
      </trkpt>
      <trkpt lat="47.14179" lon="5.49658">
        <ele>281</ele>
        <time>2023-05-01T14:40:54+02:00</time>
      </trkpt>
      <trkpt lat="47.1417" lon="5.49677">
        <ele>282</ele>
        <time>2023-05-01T14:41:05+02:00</time>
      </trkpt>
      <trkpt lat="47.14166" lon="5.49696">
        <ele>282</ele>
        <time>2023-05-01T14:41:16+02:00</time>
      </trkpt>
      <trkpt lat="47.14159" lon="5.49719">
        <ele>282</ele>
        <time>2023-05-01T14:41:29+02:00</time>
      </trkpt>
      <trkpt lat="47.14151" lon="5.49738">
        <ele>283</ele>
        <time>2023-05-01T14:41:41+02:00</time>
      </trkpt>
      <trkpt lat="47.14144" lon="5.49756">
        <ele>283</ele>
        <time>2023-05-01T14:41:52+02:00</time>
      </trkpt>
      <trkpt lat="47.14138" lon="5.49774">
        <ele>284</ele>
        <time>2023-05-01T14:42:03+02:00</time>
      </trkpt>
      <trkpt lat="47.14135" lon="5.49795">
        <ele>284</ele>
        <time>2023-05-01T14:42:14+02:00</time>
      </trkpt>
      <trkpt lat="47.1413" lon="5.49816">
        <ele>284</ele>
        <time>2023-05-01T14:42:25+02:00</time>
      </trkpt>
      <trkpt lat="47.14118" lon="5.49832">
        <ele>284</ele>
        <time>2023-05-01T14:42:38+02:00</time>
      </trkpt>
      <trkpt lat="47.14111" lon="5.49813">
        <ele>285</ele>
        <time>2023-05-01T14:42:52+02:00</time>
      </trkpt>
      <trkpt lat="47.14109" lon="5.49792">
        <ele>285</ele>
        <time>2023-05-01T14:43:03+02:00</time>
      </trkpt>
      <trkpt lat="47.14105" lon="5.49772">
        <ele>285</ele>
        <time>2023-05-01T14:43:14+02:00</time>
      </trkpt>
      <trkpt lat="47.14103" lon="5.49751">
        <ele>285</ele>
        <time>2023-05-01T14:43:25+02:00</time>
      </trkpt>
      <trkpt lat="47.14102" lon="5.49727">
        <ele>285</ele>
        <time>2023-05-01T14:43:39+02:00</time>
      </trkpt>
      <trkpt lat="47.14099" lon="5.49706">
        <ele>284</ele>
        <time>2023-05-01T14:43:49+02:00</time>
      </trkpt>
      <trkpt lat="47.14094" lon="5.49684">
        <ele>283</ele>
        <time>2023-05-01T14:44:01+02:00</time>
      </trkpt>
      <trkpt lat="47.14096" lon="5.49664">
        <ele>284</ele>
        <time>2023-05-01T14:44:12+02:00</time>
      </trkpt>
      <trkpt lat="47.14099" lon="5.4964">
        <ele>284</ele>
        <time>2023-05-01T14:44:26+02:00</time>
      </trkpt>
      <trkpt lat="47.14101" lon="5.49617">
        <ele>285</ele>
        <time>2023-05-01T14:44:39+02:00</time>
      </trkpt>
      <trkpt lat="47.14104" lon="5.49597">
        <ele>284</ele>
        <time>2023-05-01T14:44:50+02:00</time>
      </trkpt>
      <trkpt lat="47.1411" lon="5.49575">
        <ele>285</ele>
        <time>2023-05-01T14:45:04+02:00</time>
      </trkpt>
      <trkpt lat="47.14109" lon="5.49552">
        <ele>284</ele>
        <time>2023-05-01T14:45:18+02:00</time>
      </trkpt>
      <trkpt lat="47.14103" lon="5.49533">
        <ele>285</ele>
        <time>2023-05-01T14:45:32+02:00</time>
      </trkpt>
    </trkseg>
  </trk>
</gpx>